Radiosonde details



Informationen :

Serial : X0324323
Type : Vaisala RS41-SGP
Date of production : 14.01.2025
Frequency : 401.600MHz
Launchsite : Poprad
Nearest town : Monte Alegre, BR (3.3km)

Altitude (Max) : 30824m at 2026-09-05 12:31:07
Speed (Max) : 207km/h at altitude 983m

Average speed : 104km/h
Average ascent rate : 5m/s
Average descent rate : -0m/s
Ascent rate (Max) : 10.3m/s
Descent rate (Max): -2.1m/s

First frame :
SQ9EZE-14 at 2026-09-05 11:35:26 at altitude 4778m (OG: 4169m)
Last frame :
SP9KGR-15 at 2026-09-05 13:16:29 at altitude 27m (OG: -22m)

Flighttime : 1h41m3s
Ascent time : 55m41s
Descent time : 45m22s
Uptime : 1h44m08s
Killtimer : -

Distance (Straight line distance): 9059km

Distance (Route):


Frames : 646


Measurement :

Temperature : -17.5°C
Humidity : 5.3%
Pressure : 456.5hPa


Vertical profile (SkewT) :


Elevation profile :



Receiving stations :


Receiver Frames First received Last received
SQ9EZE-13 271 2026-09-05 11:35:45 2026-09-05 13:10:28
SP9KGR-15 155 2026-09-05 11:52:18 2026-09-05 13:16:29
GYPAP8-17 79 2026-09-05 11:35:30 2026-09-05 13:16:20
SQ9EZE-14 62 2026-09-05 11:35:26 2026-09-05 13:10:19
OM5KV 37 2026-09-05 11:35:59 2026-09-05 11:39:01
OE5DRO-10 12 2026-09-05 12:40:42 2026-09-05 12:55:20
OE3JTB-15 11 2026-09-05 11:36:57 2026-09-05 12:05:40
LZ4TU-5 9 2026-09-05 12:41:07 2026-09-05 12:57:29
S52SK 5 2026-09-05 12:48:59 2026-09-05 12:56:35
POL2MAQ 3 2026-09-05 13:08:35 2026-09-05 13:09:38
HA6NAB-11 2 2026-09-05 12:52:16 2026-09-05 12:56:10

Share per receiver :



All frames :


Receiver Date Latitude Longitude Direction Speed Altitude Climb Temperature Humidity Pressure Voltage Killtimer Uptime BKT XDATA
SP9KGR-152026-09-05 13:16:29-2.02832-54.069160km/h27m0.0m/s-17.5°C5.3%456.5hPa2.7V00:00:0000:00:0000:00:00
GYPAP8-172026-09-05 13:16:20-2.02832-54.069160km/h27m0.0m/s-18.4°C8.1%449.6hPa2.7V00:00:0000:00:0000:00:00
SP9KGR-152026-09-05 13:16:14-2.02832-54.069160km/h27m0.0m/s-19.1°C7.8%444.6hPa2.7V00:00:0000:00:0000:00:00
SP9KGR-152026-09-05 13:15:58-2.02832-54.069160km/h27m0.0m/s-20.6°C7.6%432.1hPa2.7V00:00:0000:00:0000:00:00
SP9KGR-152026-09-05 13:15:42-2.02832-54.069160km/h27m0.0m/s-22.5°C7.5%419.5hPa2.7V00:00:0000:00:0000:00:00
GYPAP8-172026-09-05 13:15:35-2.02832-54.069160km/h27m0.0m/s-23.0°C6.4%413.8hPa2.7V00:00:0000:00:0000:00:00
SP9KGR-152026-09-05 13:15:27-2.02832-54.069160km/h27m0.0m/s-23.6°C5.8%407.8hPa2.7V00:00:0000:00:0000:00:00
SP9KGR-152026-09-05 13:15:11-2.02832-54.069160km/h27m0.0m/s-25.1°C7.8%395.3hPa2.7V00:00:0000:00:0000:00:00
SP9KGR-152026-09-05 13:14:55-2.02832-54.069160km/h27m0.0m/s-27.0°C7.7%383.2hPa2.7V00:00:0000:00:0000:00:00
GYPAP8-172026-09-05 13:14:51-2.02832-54.069160km/h27m0.0m/s-27.5°C7.6%380.0hPa2.7V00:00:0000:00:0000:00:00
SP9KGR-152026-09-05 13:14:40-2.02832-54.069160km/h27m0.0m/s-28.6°C6.9%372.0hPa2.7V00:00:0000:00:0000:00:00
SP9KGR-152026-09-05 13:14:24-2.02832-54.069160km/h27m0.0m/s-30.2°C6.6%359.6hPa2.7V00:00:0000:00:0000:00:00
SP9KGR-152026-09-05 13:14:09-2.02832-54.069160km/h27m0.0m/s-31.1°C6.8%348.4hPa2.7V00:00:0000:00:0000:00:00
GYPAP8-172026-09-05 13:14:07-2.02832-54.069160km/h27m0.0m/s-31.3°C6.8%347.0hPa2.7V00:00:0000:00:0000:00:00
SP9KGR-152026-09-05 13:13:54-2.02832-54.069160km/h27m0.0m/s-32.8°C10.1%337.4hPa2.7V00:00:0000:00:0000:00:00
SP9KGR-152026-09-05 13:13:38-2.02832-54.069160km/h27m0.0m/s-35.0°C15.7%325.9hPa2.7V00:00:0000:00:0000:00:00
GYPAP8-172026-09-05 13:13:23-2.02832-54.069160km/h27m0.0m/s-37.1°C21.5%315.2hPa2.7V00:00:0000:00:0000:00:00
SP9KGR-152026-09-05 13:13:23-2.02832-54.069160km/h27m0.0m/s-37.1°C21.5%315.2hPa2.7V00:00:0000:00:0000:00:00
SP9KGR-152026-09-05 13:13:07-2.02832-54.069160km/h27m0.0m/s-39.2°C19.0%304.0hPa2.7V00:00:0000:00:0000:00:00
SP9KGR-152026-09-05 13:12:52-2.02832-54.069160km/h27m0.0m/s-41.3°C27.5%293.8hPa2.7V00:00:0000:00:0000:00:00
GYPAP8-172026-09-05 13:12:38-2.02832-54.069160km/h27m0.0m/s-43.3°C35.8%284.4hPa2.7V00:00:0000:00:0000:00:00
SP9KGR-152026-09-05 13:12:37-2.02832-54.069160km/h27m0.0m/s-43.4°C36.0%283.7hPa2.7V00:00:0000:00:0000:00:00
SP9KGR-152026-09-05 13:12:21-2.02832-54.069160km/h27m0.0m/s-45.6°C30.2%273.6hPa2.7V00:00:0000:00:0000:00:00
SP9KGR-152026-09-05 13:12:06-2.02832-54.069160km/h27m0.0m/s-47.1°C20.1%264.5hPa2.7V00:00:0000:00:0000:00:00
GYPAP8-172026-09-05 13:11:54-2.02832-54.069160km/h27m0.0m/s-48.8°C22.8%257.2hPa2.7V00:00:0000:00:0000:00:00
SP9KGR-152026-09-05 13:11:50-2.02832-54.069160km/h27m0.0m/s-49.4°C23.6%254.8hPa2.7V00:00:0000:00:0000:00:00
SP9KGR-152026-09-05 13:11:35-2.02832-54.069160km/h27m0.0m/s-51.4°C26.8%245.8hPa2.7V00:00:0000:00:0000:00:00
SP9KGR-152026-09-05 13:11:19-2.02832-54.069160km/h27m0.0m/s-53.5°C30.4%236.4hPa2.7V00:00:0000:00:0000:00:00
GYPAP8-172026-09-05 13:11:10-2.02832-54.069160km/h27m0.0m/s-54.6°C30.6%231.1hPa2.7V00:00:0000:00:0000:00:00
SP9KGR-152026-09-05 13:11:02-2.02832-54.069160km/h27m0.0m/s-55.7°C31.1%226.4hPa2.7V00:00:0000:00:0000:00:00
SP9KGR-152026-09-05 13:10:46-2.02832-54.069160km/h27m0.0m/s-56.9°C26.6%217.0hPa2.7V00:00:0000:00:0000:00:00
SP9KGR-152026-09-05 13:10:30-2.02832-54.069160km/h27m0.0m/s-57.9°C20.4%207.9hPa2.7V00:00:0000:00:0000:00:00
SQ9EZE-132026-09-05 13:10:28-2.02832-54.069160km/h27m0.0m/s-58.1°C19.1%206.8hPa2.7V00:00:0000:00:0000:00:00
GYPAP8-172026-09-05 13:10:25-2.02832-54.069160km/h27m0.0m/s-58.2°C17.1%205.1hPa2.7V00:00:0000:00:0000:00:00
SQ9EZE-142026-09-05 13:10:19-2.02832-54.069160km/h27m0.0m/s-58.0°C14.3%201.7hPa2.7V00:00:0000:00:0000:00:00
SP9KGR-152026-09-05 13:10:15-2.02832-54.069160km/h27m0.0m/s-58.1°C13.0%199.5hPa2.7V00:00:0000:00:0000:00:00
SQ9EZE-132026-09-05 13:10:10-2.02832-54.069160km/h27m0.0m/s-58.8°C11.6%196.7hPa2.7V00:00:0000:00:0000:00:00
SP9KGR-152026-09-05 13:09:59-2.02832-54.069160km/h27m0.0m/s-57.5°C7.4%190.6hPa2.7V00:00:0000:00:0000:00:00
SQ9EZE-132026-09-05 13:09:51-2.02832-54.069160km/h27m0.0m/s-57.2°C6.0%186.5hPa2.7V00:00:0000:00:0000:00:00
SP9KGR-152026-09-05 13:09:44-2.02832-54.069160km/h27m0.0m/s-57.9°C4.5%182.5hPa2.7V00:00:0000:00:0000:00:00
GYPAP8-172026-09-05 13:09:41-2.02832-54.069160km/h27m0.0m/s-57.5°C3.9%180.9hPa2.7V00:00:0000:00:0000:00:00
POL2MAQ2026-09-05 13:09:38-2.02832-54.069160km/h27m0.0m/s0°C0%0hPa2.7V00:00:0000:00:0000:00:00
SQ9EZE-132026-09-05 13:09:36-2.02832-54.069160km/h27m0.0m/s-54.5°C2.8%178.2hPa2.7V00:00:0000:00:0000:00:00
SP9KGR-152026-09-05 13:09:28-2.02832-54.069160km/h27m0.0m/s-54.0°C2.4%174.4hPa2.7V00:00:0000:00:0000:00:00
SQ9EZE-132026-09-05 13:09:20-2.02832-54.069160km/h27m0.0m/s-52.8°C2.1%170.3hPa2.7V00:00:0000:00:0000:00:00
POL2MAQ2026-09-05 13:09:17-2.02832-54.069160km/h27m0.0m/s0°C0%0hPa2.7V00:00:0000:00:0000:00:00
SP9KGR-152026-09-05 13:09:12-2.02832-54.069160km/h27m0.0m/s-52.2°C2.1%166.4hPa2.7V00:00:0000:00:0000:00:00
SQ9EZE-132026-09-05 13:09:04-2.02832-54.069160km/h27m0.0m/s-52.1°C2.0%162.9hPa2.7V00:00:0000:00:0000:00:00
SP9KGR-152026-09-05 13:08:57-2.02832-54.069160km/h27m0.0m/s-51.4°C1.9%159.9hPa2.7V00:00:0000:00:0000:00:00
GYPAP8-172026-09-05 13:08:56-2.02832-54.069160km/h27m0.0m/s-51.4°C1.8%159.5hPa2.7V00:00:0000:00:0000:00:00
SQ9EZE-132026-09-05 13:08:47-2.02832-54.069160km/h27m0.0m/s-52.1°C1.9%155.1hPa2.7V00:00:0000:00:0000:00:00
SP9KGR-152026-09-05 13:08:42-2.02832-54.069160km/h27m0.0m/s-52.9°C1.9%152.9hPa2.7V00:00:0000:00:0000:00:00
POL2MAQ2026-09-05 13:08:35-2.02832-54.069160km/h27m0.0m/s0°C0%0hPa2.7V00:00:0000:00:0000:00:00
SQ9EZE-132026-09-05 13:08:32-2.02832-54.069160km/h27m0.0m/s-54.3°C2.2%148.4hPa2.7V00:00:0000:00:0000:00:00
SP9KGR-152026-09-05 13:08:26-2.02832-54.069160km/h27m0.0m/s-55.0°C2.2%145.8hPa2.7V00:00:0000:00:0000:00:00
SQ9EZE-132026-09-05 13:08:16-2.02832-54.069160km/h27m0.0m/s-55.0°C2.3%141.7hPa2.7V00:00:0000:00:0000:00:00
SQ9EZE-142026-09-05 13:08:15-2.02832-54.069160km/h27m0.0m/s-54.9°C2.3%141.2hPa2.7V00:00:0000:00:0000:00:00
SP9KGR-152026-09-05 13:08:10-2.02832-54.069160km/h27m0.0m/s-55.4°C2.4%139.2hPa2.7V00:00:0000:00:0000:00:00
GYPAP8-172026-09-05 13:08:10-2.02832-54.069160km/h27m0.0m/s-55.4°C2.4%139.2hPa2.7V00:00:0000:00:0000:00:00
SQ9EZE-132026-09-05 13:08:00-2.02832-54.069160km/h27m0.0m/s-54.4°C2.1%135.2hPa2.7V00:00:0000:00:0000:00:00
SQ9EZE-142026-09-05 13:07:59-2.02832-54.069160km/h27m0.0m/s-54.4°C2.1%134.7hPa2.7V00:00:0000:00:0000:00:00
SP9KGR-152026-09-05 13:07:55-2.02832-54.069160km/h27m0.0m/s-54.0°C2.1%133.1hPa2.7V00:00:0000:00:0000:00:00
SQ9EZE-132026-09-05 13:07:45-2.02832-54.069160km/h27m0.0m/s-54.1°C2.0%129.5hPa2.7V00:00:0000:00:0000:00:00
SP9KGR-152026-09-05 13:07:39-2.02832-54.069160km/h27m0.0m/s-55.2°C2.1%127.1hPa2.7V00:00:0000:00:0000:00:00
SQ9EZE-132026-09-05 13:07:29-2.02832-54.069160km/h27m0.0m/s-55.5°C2.2%123.4hPa2.7V00:00:0000:00:0000:00:00
SP9KGR-152026-09-05 13:07:23-2.02832-54.069160km/h27m0.0m/s-55.5°C2.2%121.0hPa2.7V00:00:0000:00:0000:00:00
GYPAP8-172026-09-05 13:07:23-2.02832-54.069160km/h27m0.0m/s-55.5°C2.2%121.0hPa2.7V00:00:0000:00:0000:00:00
SQ9EZE-132026-09-05 13:07:13-2.02832-54.069160km/h27m0.0m/s-55.1°C2.0%117.4hPa2.7V00:00:0000:00:0000:00:00
SP9KGR-152026-09-05 13:07:07-1.80064-53.647490km/h21m0.0m/s-53.8°C1.8%115.3hPa2.7V00:00:0000:00:0000:00:00
SQ9EZE-132026-09-05 13:06:57-1.72510-53.658080km/h19m0.0m/s-54.1°C1.8%111.6hPa2.7V00:00:0000:00:0000:00:00
SP9KGR-152026-09-05 13:06:52-1.68733-53.663380km/h18m0.0m/s-54.3°C1.8%109.9hPa2.7V00:00:0000:00:0000:00:00
SQ9EZE-132026-09-05 13:06:41-21.99851-61.663270km/h2979m0.0m/s-54.4°C1.8%106.0hPa2.7V00:00:0000:00:0000:00:00
SP9KGR-152026-09-05 13:06:37-30.38781-52.017250km/h5438m0.0m/s-54.7°C1.7%104.2hPa2.7V00:00:0000:00:0000:00:00
SQ9EZE-132026-09-05 13:06:25-23.35495-43.323660km/h3337m0.0m/s-55.4°C1.8%99.8hPa2.7V00:00:0000:00:0000:00:00
SQ9EZE-132026-09-05 12:59:13-9.28569-74.791370km/h552m0.0m/s-44.9°C0.9%15.4hPa2.7V00:00:0000:00:0000:00:00
SQ9EZE-142026-09-05 12:58:59-12.04798-77.04688254°199km/h988m0.1m/s-45.2°C1.0%14.2hPa2.7V00:00:0000:00:0000:00:00
SQ9EZE-132026-09-05 12:58:54-9.28569-74.791370km/h552m0.0m/s-45.8°C1.1%13.8hPa2.7V00:00:0000:00:0000:00:00
SQ9EZE-132026-09-05 12:58:39-9.28569-74.791370km/h552m0.0m/s-42.7°C0.9%12.5hPa2.7V00:00:0000:00:0000:00:00
GYPAP8-172026-09-05 12:58:38-12.04634-77.055690km/h986m0.0m/s-42.6°C0.9%12.5hPa2.7V00:00:0000:00:0000:00:00
SQ9EZE-132026-09-05 12:58:23-9.28569-74.791370km/h552m0.0m/s-40.4°C0.8%11.3hPa2.7V00:00:0000:00:0000:00:00
SQ9EZE-132026-09-05 12:58:05-10.20207-74.960990km/h665m0.0m/s-40.5°C0.8%10.1hPa2.7V00:00:0000:00:0000:00:00
SQ9EZE-132026-09-05 12:57:49-10.32609-74.592290km/h682m0.0m/s-41.8°C0.9%9.2hPa2.7V00:00:0000:00:0000:00:00
GYPAP8-172026-09-05 12:57:37-12.04634-77.055690km/h986m0.0m/s-40.3°C0.9%8.5hPa2.7V00:00:0000:00:0000:00:00
SQ9EZE-132026-09-05 12:57:34-10.32609-74.592290km/h682m0.0m/s-39.3°C0.8%8.3hPa2.7V00:00:0000:00:0000:00:00
LZ4TU-52026-09-05 12:57:29-12.03507-77.0576629°199km/h980m-0.1m/s0°C0%0hPa2.7V00:00:0000:00:0000:00:00
SQ9EZE-132026-09-05 12:57:08-12.04634-77.055690km/h986m0.0m/s-35.1°C0.6%6.9hPa2.7V00:00:0000:00:0000:00:00
SQ9EZE-142026-09-05 12:56:58-12.04798-77.04688254°199km/h988m0.1m/s-35.2°C0.6%6.8hPa2.7V00:00:0000:00:0000:00:00
SQ9EZE-132026-09-05 12:56:52-12.04634-77.055690km/h986m0.0m/s-35.4°C0.6%6.9hPa2.7V00:00:0000:00:0000:00:00
SQ9EZE-132026-09-05 12:56:36-12.04634-77.055690km/h986m0.0m/s-35.5°C0.6%7.0hPa2.7V00:00:0000:00:0000:00:00
S52SK2026-09-05 12:56:35-12.04634-77.055690km/h986m0.0m/s0°C0%0hPa2.7V00:00:0000:00:0000:00:00
SQ9EZE-132026-09-05 12:56:21-12.04634-77.055690km/h986m0.0m/s-35.4°C0.6%7.1hPa2.7V00:00:0000:00:0000:00:00
GYPAP8-172026-09-05 12:56:14-12.04287-77.060190km/h989m0.0m/s-35.4°C0.6%7.1hPa2.7V00:00:0000:00:0000:00:00
HA6NAB-112026-09-05 12:56:10-12.03083-77.0526072°199km/h987m-0.0m/s0°C0%0hPa2.7V00:00:0000:00:0000:00:00
SQ9EZE-132026-09-05 12:56:06-12.04634-77.055690km/h986m0.0m/s-35.9°C0.6%7.2hPa2.7V00:00:0000:00:0000:00:00
SQ9EZE-132026-09-05 12:55:50-12.04287-77.060190km/h989m0.0m/s-35.7°C0.6%7.3hPa2.7V00:00:0000:00:0000:00:00
SQ9EZE-132026-09-05 12:55:35-12.04287-77.060190km/h989m0.0m/s-36.0°C0.6%7.4hPa2.7V00:00:0000:00:0000:00:00
GYPAP8-172026-09-05 12:55:29-12.04439-77.05822309°193km/h988m0.3m/s-36.0°C0.6%7.4hPa2.7V00:00:0000:00:0000:00:00
OE5DRO-102026-09-05 12:55:20-12.04742-77.05391295°201km/h983m-0.9m/s0°C0%0hPa2.7V00:00:0000:00:0000:00:00
SQ9EZE-132026-09-05 12:55:19-12.04742-77.05391295°204km/h983m-0.9m/s-36.5°C0.6%7.5hPa2.7V00:00:0000:00:0000:00:00
OE5DRO-102026-09-05 12:55:16-12.04814-77.05197285°199km/h982m-1.4m/s0°C0%0hPa2.7V00:00:0000:00:0000:00:00
SQ9EZE-132026-09-05 12:55:03-12.04764-77.04591247°199km/h984m0.7m/s-37.5°C0.7%7.6hPa2.7V00:00:0000:00:0000:00:00
S52SK2026-09-05 12:55:03-12.04764-77.04591247°199km/h984m0.7m/s0°C0%0hPa2.7V00:00:0000:00:0000:00:00
OE5DRO-102026-09-05 12:54:58-12.04602-77.04334227°199km/h984m-0.4m/s0°C0%0hPa2.7V00:00:0000:00:0000:00:00
S52SK2026-09-05 12:54:57-12.04602-77.04334228°199km/h984m-0.5m/s0°C0%0hPa2.7V00:00:0000:00:0000:00:00
SQ9EZE-142026-09-05 12:54:55-12.04527-77.04263222°199km/h986m-0.0m/s-37.9°C0.7%7.7hPa2.7V00:00:0000:00:0000:00:00
SQ9EZE-132026-09-05 12:54:48-12.04221-77.04086200°199km/h986m0.0m/s-38.0°C0.7%7.7hPa2.7V00:00:0000:00:0000:00:00
OE5DRO-102026-09-05 12:54:47-12.04123-77.04056193°197km/h986m-0.5m/s0°C0%0hPa2.7V00:00:0000:00:0000:00:00
GYPAP8-172026-09-05 12:54:45-12.04073-77.04048185°193km/h986m-0.0m/s-38.1°C0.7%7.7hPa2.7V00:00:0000:00:0000:00:00
OE5DRO-102026-09-05 12:54:44-12.03973-77.04038182°199km/h986m-0.7m/s0°C0%0hPa2.7V00:00:0000:00:0000:00:00
SQ9EZE-142026-09-05 12:54:40-12.03821-77.04047174°199km/h987m0.1m/s-38.2°C0.7%7.8hPa2.7V00:00:0000:00:0000:00:00
OE5DRO-102026-09-05 12:54:40-12.03772-77.04054170°199km/h986m0.3m/s0°C0%0hPa2.7V00:00:0000:00:0000:00:00
SQ9EZE-132026-09-05 12:54:32-12.03445-77.04186148°199km/h986m0.1m/s-38.5°C0.7%7.8hPa2.7V00:00:0000:00:0000:00:00
OE5DRO-102026-09-05 12:54:12-12.03047-77.0512180°199km/h985m-0.0m/s0°C0%0hPa2.7V00:00:0000:00:0000:00:00
SQ9EZE-132026-09-05 12:54:07-12.03106-77.0531668°199km/h983m2.8m/s-39.5°C0.7%8.0hPa2.7V00:00:0000:00:0000:00:00
LZ4TU-52026-09-05 12:53:55-12.03507-77.0576629°199km/h980m-0.1m/s0°C0%0hPa2.7V00:00:0000:00:0000:00:00
GYPAP8-172026-09-05 12:53:40-12.04242-77.05820341°197km/h992m-0.2m/s-40.2°C0.7%8.2hPa2.7V00:00:0000:00:0000:00:00
OE5DRO-102026-09-05 12:53:40-12.04288-77.05801338°197km/h992m-0.8m/s0°C0%0hPa2.7V00:00:0000:00:0000:00:00
GYPAP8-172026-09-05 12:52:31-12.03145-77.04515120°199km/h988m-0.3m/s-41.6°C0.8%8.8hPa2.7V00:00:0000:00:0000:00:00
HA6NAB-112026-09-05 12:52:16-12.03083-77.0526072°199km/h987m-0.0m/s0°C0%0hPa2.7V00:00:0000:00:0000:00:00
SQ9EZE-132026-09-05 12:52:10-12.03230-77.0552952°199km/h987m0.1m/s-41.8°C0.8%9.0hPa2.7V00:00:0000:00:0000:00:00
SQ9EZE-132026-09-05 12:51:40-11.95532-71.559010km/h910m0.0m/s-41.8°C0.9%9.3hPa2.7V00:00:0000:00:0000:00:00
SQ9EZE-132026-09-05 12:51:24-16.73242-81.474780km/h1759m0.0m/s-41.4°C0.8%9.4hPa2.7V00:00:0000:00:0000:00:00
SQ9EZE-142026-09-05 12:51:24-16.73242-81.474780km/h1759m0.0m/s-41.4°C0.8%9.4hPa2.7V00:00:0000:00:0000:00:00
LZ4TU-52026-09-05 12:51:12-21.28240-72.503920km/h2797m0.0m/s0°C0%0hPa2.7V00:00:0000:00:0000:00:00
SQ9EZE-142026-09-05 12:51:09-20.56752-74.534210km/h2620m0.0m/s-41.0°C0.8%9.6hPa2.7V00:00:0000:00:0000:00:00
LZ4TU-52026-09-05 12:51:08-20.73127-74.466470km/h2660m0.0m/s0°C0%0hPa2.7V00:00:0000:00:0000:00:00
S52SK2026-09-05 12:51:03-22.59582-72.823280km/h3135m0.0m/s0°C0%0hPa2.7V00:00:0000:00:0000:00:00
SQ9EZE-132026-09-05 12:50:38-31.49477-65.219620km/h5801m0.0m/s-40.5°C0.8%9.9hPa2.7V00:00:0000:00:0000:00:00
SQ9EZE-132026-09-05 12:50:22-22.52746-78.835550km/h3117m0.0m/s-40.3°C0.8%10.0hPa2.7V00:00:0000:00:0000:00:00
SQ9EZE-132026-09-05 12:50:07-22.52746-78.835550km/h3117m0.0m/s-40.8°C0.8%10.2hPa2.7V00:00:0000:00:0000:00:00
SQ9EZE-132026-09-05 12:49:51-22.53379-78.875350km/h3118m0.0m/s-40.6°C0.8%10.4hPa2.7V00:00:0000:00:0000:00:00
GYPAP8-172026-09-05 12:49:43-28.41743-67.888950km/h4812m0.0m/s-40.2°C0.8%10.4hPa2.7V00:00:0000:00:0000:00:00
SQ9EZE-132026-09-05 12:49:35-23.02024-65.202070km/h3247m0.0m/s-40.0°C0.8%10.5hPa2.7V00:00:0000:00:0000:00:00
SQ9EZE-132026-09-05 12:49:206.08883-39.453950km/h239m0.0m/s-40.4°C0.8%10.7hPa2.7V00:00:0000:00:0000:00:00
SQ9EZE-142026-09-05 12:49:05-23.73362-47.796640km/h3440m0.0m/s-40.0°C0.8%10.8hPa2.7V00:00:0000:00:0000:00:00
SQ9EZE-132026-09-05 12:49:04-20.18163-46.328190km/h2526m0.0m/s-40.0°C0.8%10.8hPa2.7V00:00:0000:00:0000:00:00
S52SK2026-09-05 12:48:59-41.09137-61.277990km/h9194m0.0m/s0°C0%0hPa2.7V00:00:0000:00:0000:00:00
SQ9EZE-142026-09-05 12:48:49-10.24859-48.408900km/h671m0.0m/s-40.0°C0.8%11.0hPa2.7V00:00:0000:00:0000:00:00
SQ9EZE-132026-09-05 12:48:49-10.24859-48.408900km/h671m0.0m/s-40.0°C0.8%11.0hPa2.7V00:00:0000:00:0000:00:00
GYPAP8-172026-09-05 12:48:39-23.01569-50.612800km/h3246m0.0m/s-40.0°C0.8%11.1hPa2.7V00:00:0000:00:0000:00:00
SQ9EZE-132026-09-05 12:48:3350.07831-20.778980km/h12534m0.0m/s-40.4°C0.8%11.2hPa2.7V00:00:0000:00:0000:00:00
LZ4TU-52026-09-05 12:48:2250.33995-20.705470km/h12631m0.0m/s0°C0%0hPa2.7V00:00:0000:00:0000:00:00
SQ9EZE-132026-09-05 12:48:1738.45373-38.007170km/h8228m0.0m/s-40.6°C0.8%11.3hPa2.7V00:00:0000:00:0000:00:00
GYPAP8-172026-09-05 12:47:35-33.09368-55.429070km/h6338m0.0m/s-42.4°C0.8%11.8hPa2.7V00:00:0000:00:0000:00:00
SQ9EZE-132026-09-05 12:45:48-35.29544-45.000000km/h30824m0.0m/s-45.6°C1.0%13.1hPa2.7V00:00:0000:00:0000:00:00
SQ9EZE-132026-09-05 12:45:33-35.29544-135.000000km/h30824m-0.0m/s-46.2°C1.0%13.3hPa2.7V00:00:0000:00:0000:00:00
GYPAP8-172026-09-05 12:45:17-35.29544-135.000000km/h30824m-0.0m/s-46.1°C1.1%13.6hPa2.7V00:00:0000:00:0000:00:00
LZ4TU-52026-09-05 12:45:04-35.29544-45.000000km/h30824m0.0m/s0°C0%0hPa2.7V00:00:0000:00:0000:00:00
SQ9EZE-132026-09-05 12:45:01-35.29544-45.000000km/h30824m0.0m/s-45.6°C1.0%13.7hPa2.7V00:00:0000:00:0000:00:00
LZ4TU-52026-09-05 12:44:5535.29544135.000000km/h30824m0.0m/s0°C0%0hPa2.7V00:00:0000:00:0000:00:00
SQ9EZE-132026-09-05 12:44:4535.29544-135.000000km/h30824m0.0m/s-45.4°C1.0%14.0hPa2.7V00:00:0000:00:0000:00:00
SQ9EZE-132026-09-05 12:43:11-12.03847-77.06037338°201km/h975m-2.1m/s-44.7°C1.0%15.4hPa2.7V00:00:0000:00:0000:00:00
SQ9EZE-132026-09-05 12:42:55-12.04553-77.05644315°199km/h986m-0.0m/s-44.9°C1.0%15.6hPa2.7V00:00:0000:00:0000:00:00
GYPAP8-172026-09-05 12:42:21-12.04282-77.04173206°199km/h989m0.0m/s-46.2°C1.0%16.1hPa2.7V00:00:0000:00:0000:00:00
SQ9EZE-132026-09-05 12:41:25-12.03521-77.0584326°199km/h984m1.2m/s-46.8°C1.1%17.0hPa2.7V00:00:0000:00:0000:00:00
OE5DRO-102026-09-05 12:41:13-12.04115-77.05908347°199km/h980m-0.5m/s0°C0%0hPa2.7V00:00:0000:00:0000:00:00
LZ4TU-52026-09-05 12:41:12-12.04164-77.05895345°199km/h981m0.0m/s0°C0%0hPa2.7V00:00:0000:00:0000:00:00
GYPAP8-172026-09-05 12:41:11-12.04212-77.05880341°199km/h981m0.2m/s-46.5°C1.1%17.3hPa2.7V00:00:0000:00:0000:00:00
LZ4TU-52026-09-05 12:41:07-12.04394-77.05789328°199km/h978m-0.2m/s0°C0%0hPa2.7V00:00:0000:00:0000:00:00
SQ9EZE-132026-09-05 12:41:03-12.04552-77.05660316°199km/h983m0.3m/s-46.8°C1.1%17.4hPa2.7V00:00:0000:00:0000:00:00
OE5DRO-102026-09-05 12:41:00-12.04648-77.05541305°199km/h982m-0.5m/s0°C0%0hPa2.7V00:00:0000:00:0000:00:00
OE5DRO-102026-09-05 12:40:53-12.04790-77.05214283°199km/h978m-0.5m/s0°C0%0hPa2.7V00:00:0000:00:0000:00:00
SQ9EZE-132026-09-05 12:40:47-12.04805-77.04906265°199km/h978m-0.3m/s-47.3°C1.1%17.7hPa2.7V00:00:0000:00:0000:00:00
OE5DRO-102026-09-05 12:40:42-12.04740-77.04658248°199km/h976m0.0m/s0°C0%0hPa2.7V00:00:0000:00:0000:00:00
SQ9EZE-132026-09-05 12:40:31-12.04383-77.04234213°199km/h974m0.1m/s-47.9°C1.2%18.0hPa2.7V00:00:0000:00:0000:00:00
SQ9EZE-132026-09-05 12:40:16-12.03654-77.04131165°199km/h973m-0.5m/s-47.4°C1.1%18.2hPa2.7V00:00:0000:00:0000:00:00
GYPAP8-172026-09-05 12:40:02-12.03117-77.04568120°197km/h969m-0.2m/s-47.3°C1.1%18.5hPa2.7V00:00:0000:00:0000:00:00
SQ9EZE-132026-09-05 12:40:00-12.03075-77.04660114°199km/h967m0.3m/s-47.5°C1.1%18.5hPa2.7V00:00:0000:00:0000:00:00
SQ9EZE-132026-09-05 12:39:45-12.03093-77.0541066°199km/h973m-0.1m/s-48.0°C1.1%18.8hPa2.7V00:00:0000:00:0000:00:00
SQ9EZE-132026-09-05 12:39:29-12.03703-77.0591114°199km/h976m0.0m/s-47.6°C1.1%19.1hPa2.7V00:00:0000:00:0000:00:00
SQ9EZE-132026-09-05 12:39:13-12.04469-77.05734323°199km/h978m-0.1m/s-47.4°C1.1%19.4hPa2.7V00:00:0000:00:0000:00:00
SQ9EZE-142026-09-05 12:39:03-12.04758-77.05322291°199km/h978m-0.2m/s-47.2°C1.1%19.5hPa2.7V00:00:0000:00:0000:00:00
SQ9EZE-132026-09-05 12:38:58-12.04812-77.05072274°199km/h981m0.1m/s-47.1°C1.1%19.6hPa2.7V00:00:0000:00:0000:00:00
GYPAP8-172026-09-05 12:38:50-12.04747-77.04668249°199km/h981m-0.5m/s-47.2°C1.1%19.8hPa2.7V00:00:0000:00:0000:00:00
SQ9EZE-142026-09-05 12:38:48-12.04703-77.04575242°199km/h979m0.6m/s-47.1°C1.1%19.8hPa2.7V00:00:0000:00:0000:00:00
SQ9EZE-132026-09-05 12:38:42-12.04514-77.04333223°199km/h976m0.1m/s-46.7°C1.1%19.9hPa2.7V00:00:0000:00:0000:00:00
SQ9EZE-132026-09-05 12:38:27-12.03814-77.04101175°199km/h976m0.1m/s-46.5°C1.0%20.2hPa2.7V00:00:0000:00:0000:00:00
SQ9EZE-132026-09-05 12:38:12-12.03174-77.04475127°199km/h977m0.2m/s-46.7°C1.1%20.5hPa2.7V00:00:0000:00:0000:00:00
SQ9EZE-132026-09-05 12:37:56-12.03032-77.0525675°199km/h980m-0.1m/s-47.4°C1.1%20.8hPa2.7V00:00:0000:00:0000:00:00
SQ9EZE-132026-09-05 12:37:41-12.03503-77.0583527°199km/h977m0.1m/s-47.7°C1.1%21.1hPa2.7V00:00:0000:00:0000:00:00
GYPAP8-172026-09-05 12:37:37-12.03692-77.0590515°199km/h979m-0.7m/s-47.9°C1.1%21.2hPa2.7V00:00:0000:00:0000:00:00
SQ9EZE-132026-09-05 12:37:26-12.04241-77.05869339°199km/h979m0.1m/s-47.9°C1.1%21.4hPa2.7V00:00:0000:00:0000:00:00
SQ9EZE-132026-09-05 12:37:11-12.04759-77.05333291°199km/h982m0.1m/s-47.9°C1.1%21.7hPa2.7V00:00:0000:00:0000:00:00
SQ9EZE-132026-09-05 12:36:55-12.04684-77.04540240°199km/h981m0.2m/s-48.3°C1.1%22.0hPa2.7V00:00:0000:00:0000:00:00
SQ9EZE-132026-09-05 12:36:24-12.03318-77.04315141°197km/h980m0.5m/s-48.4°C1.2%22.6hPa2.7V00:00:0000:00:0000:00:00
SQ9EZE-142026-09-05 12:36:16-12.03079-77.04642115°199km/h978m-0.1m/s-48.0°C1.1%22.8hPa2.7V00:00:0000:00:0000:00:00
GYPAP8-172026-09-05 12:36:15-12.03060-77.04690111°199km/h978m0.0m/s-48.0°C1.1%22.8hPa2.7V00:00:0000:00:0000:00:00
SQ9EZE-132026-09-05 12:36:08-12.03003-77.0504289°199km/h977m-0.2m/s-48.1°C1.1%23.0hPa2.7V00:00:0000:00:0000:00:00
SQ9EZE-142026-09-05 12:36:00-12.03106-77.0543763°199km/h975m-0.0m/s-48.5°C1.2%23.2hPa2.7V00:00:0000:00:0000:00:00
SQ9EZE-132026-09-05 12:35:53-12.03328-77.0571441°199km/h976m-0.4m/s-48.3°C1.2%23.3hPa2.7V00:00:0000:00:0000:00:00
SQ9EZE-142026-09-05 12:35:45-12.03686-77.0589915°199km/h975m0.0m/s-48.0°C1.2%23.5hPa2.7V00:00:0000:00:0000:00:00
SQ9EZE-132026-09-05 12:35:33-12.04280-77.05849337°199km/h982m0.0m/s-47.7°C1.2%23.8hPa2.7V00:00:0000:00:0000:00:00
SQ9EZE-132026-09-05 12:35:16-12.04795-77.05191282°199km/h979m-0.1m/s-47.7°C1.1%24.2hPa2.7V00:00:0000:00:0000:00:00
GYPAP8-172026-09-05 12:35:02-12.04660-77.04502237°199km/h977m-0.1m/s-47.3°C1.2%24.5hPa2.7V00:00:0000:00:0000:00:00
SQ9EZE-132026-09-05 12:34:37-12.03543-77.04173157°199km/h979m-0.2m/s-47.1°C1.1%25.1hPa2.7V00:00:0000:00:0000:00:00
SQ9EZE-132026-09-05 12:34:21-12.03044-77.04775106°199km/h1001m-0.1m/s-47.6°C1.1%25.5hPa2.7V00:00:0000:00:0000:00:00
SQ9EZE-132026-09-05 12:34:05-12.03219-77.0557954°199km/h1024m-0.2m/s-48.1°C1.1%25.8hPa2.7V00:00:0000:00:0000:00:00
GYPAP8-172026-09-05 12:33:54-12.03677-77.0591119°199km/h1048m0.0m/s-48.9°C1.1%26.1hPa2.7V00:00:0000:00:0000:00:00
SQ9EZE-132026-09-05 12:33:50-12.03875-77.05952199km/h1053m-0.0m/s-49.3°C1.2%26.2hPa2.7V00:00:0000:00:0000:00:00
SQ9EZE-142026-09-05 12:33:44-12.04178-77.05930347°199km/h1054m-0.1m/s-49.4°C1.2%26.3hPa2.7V00:00:0000:00:0000:00:00
SQ9EZE-132026-09-05 12:33:34-12.04611-77.05675315°199km/h1054m0.1m/s-49.5°C1.2%26.6hPa2.7V00:00:0000:00:0000:00:00
SQ9EZE-142026-09-05 12:33:28-12.04784-77.05422296°199km/h1054m0.4m/s-49.3°C1.2%26.7hPa2.7V00:00:0000:00:0000:00:00
SQ9EZE-132026-09-05 12:33:19-12.04861-77.04970267°199km/h1051m0.2m/s-49.2°C1.2%27.0hPa2.7V00:00:0000:00:0000:00:00
SQ9EZE-132026-09-05 12:33:04-12.04510-77.04308219°199km/h1034m0.3m/s-49.4°C1.2%27.4hPa2.7V00:00:0000:00:0000:00:00
SQ9EZE-132026-09-05 12:32:48-12.03723-77.04125167°199km/h1004m0.0m/s-49.3°C1.2%27.8hPa2.7V00:00:0000:00:0000:00:00
GYPAP8-172026-09-05 12:32:45-12.03576-77.04169158°199km/h992m-0.1m/s-49.3°C1.2%27.8hPa2.7V00:00:0000:00:0000:00:00
SQ9EZE-132026-09-05 12:32:32-12.03115-77.04622116°199km/h989m0.3m/s!°C1.2%28.2hPa2.7V00:00:0000:00:0000:00:00
SQ9EZE-132026-09-05 12:32:16-12.03122-77.0541265°199km/h984m-0.0m/s-50.0°C1.3%28.6hPa2.7V00:00:0000:00:0000:00:00
SQ9EZE-132026-09-05 12:32:00-12.03738-77.0590113°199km/h983m-0.0m/s-50.0°C1.2%29.0hPa2.7V00:00:0000:00:0000:00:00
SQ9EZE-132026-09-05 12:31:45-12.04457-77.05747325°199km/h979m-0.0m/s-49.7°C1.2%29.4hPa2.7V00:00:0000:00:0000:00:00
GYPAP8-172026-09-05 12:31:43-12.04535-77.05683319°199km/h979m-0.0m/s-49.6°C1.2%29.4hPa2.7V00:00:0000:00:0000:00:00
SQ9EZE-132026-09-05 12:31:29-12.04825-77.05053274°199km/h971m-0.0m/s-49.9°C1.2%29.8hPa2.7V00:00:0000:00:0000:00:00
SQ9EZE-132026-09-05 12:31:13-12.04300-77.057970km/h992m0.0m/s-50.3°C1.2%30.3hPa2.7V00:00:0000:00:0000:00:00
SQ9EZE-142026-09-05 12:31:07-35.29544-45.000000km/h30824m0.0m/s-50.4°C1.3%30.4hPa2.7V00:00:0000:00:0000:00:00
SQ9EZE-132026-09-05 12:30:56-12.04088-77.05891338°197km/h996m0.9m/s-50.9°C1.2%30.7hPa2.7V00:00:0000:00:0000:00:00
SQ9EZE-142026-09-05 12:30:52-12.04300-77.05797338°197km/h992m0.9m/s-51.3°C1.2%30.9hPa2.7V00:00:0000:00:0000:00:00
GYPAP8-172026-09-05 12:30:18-12.04757-77.05341296°199km/h991m0.1m/s-53.3°C1.4%31.8hPa2.7V00:00:0000:00:0000:00:00
SQ9EZE-132026-09-05 12:30:01-12.04719-77.04501241°199km/h991m0.1m/s-53.8°C1.4%32.4hPa2.7V00:00:0000:00:0000:00:00
SQ9EZE-132026-09-05 12:29:34-12.03533-77.04136154°199km/h991m0.3m/s-54.3°C1.5%33.2hPa2.7V00:00:0000:00:0000:00:00
SQ9EZE-132026-09-05 12:29:18-12.03053-77.04765103°199km/h990m-0.1m/s-54.3°C1.5%33.7hPa2.7V00:00:0000:00:0000:00:00
SQ9EZE-132026-09-05 12:29:02-12.03236-77.0553952°199km/h989m1.5m/s-53.8°C1.5%34.2hPa2.7V00:00:0000:00:0000:00:00
SQ9EZE-142026-09-05 12:28:50-12.03743-77.0585613°199km/h986m0.4m/s-53.6°C1.5%34.6hPa2.7V00:00:0000:00:0000:00:00
SQ9EZE-132026-09-05 12:28:46-12.03945-77.05876360°199km/h986m-0.8m/s-53.5°C1.5%34.7hPa2.7V00:00:0000:00:0000:00:00
SQ9EZE-142026-09-05 12:28:34-12.04506-77.05672322°199km/h988m-0.2m/s-53.5°C1.5%35.1hPa2.7V00:00:0000:00:0000:00:00
SQ9EZE-132026-09-05 12:28:30-12.04648-77.05526309°199km/h987m0.2m/s-53.4°C1.5%35.2hPa2.7V00:00:0000:00:0000:00:00
SQ9EZE-132026-09-05 12:28:14-12.04817-77.04749258°199km/h989m-1.3m/s-53.2°C1.5%35.8hPa2.7V00:00:0000:00:0000:00:00
SQ9EZE-132026-09-05 12:27:59-12.04370-77.04153210°199km/h989m-0.2m/s-53.0°C1.5%36.3hPa2.7V00:00:0000:00:0000:00:00
GYPAP8-172026-09-05 12:27:49-12.03832-77.04047174°199km/h989m0.0m/s-52.7°C1.4%36.7hPa2.7V00:00:0000:00:0000:00:00
SQ9EZE-132026-09-05 12:27:43-12.03588-77.04111158°199km/h990m-0.1m/s-52.6°C1.4%36.8hPa2.7V00:00:0000:00:0000:00:00
SQ9EZE-132026-09-05 12:27:27-12.03067-77.04705107°199km/h991m0.1m/s-52.3°C1.4%37.4hPa2.7V00:00:0000:00:0000:00:00
SQ9EZE-132026-09-05 12:27:12-12.03171-77.0544759°199km/h992m0.1m/s-52.1°C1.4%37.9hPa2.7V00:00:0000:00:0000:00:00
SQ9EZE-132026-09-05 12:26:57-12.03784-77.0586211°199km/h996m-0.1m/s-51.9°C1.4%38.4hPa2.7V00:00:0000:00:0000:00:00
GYPAP8-172026-09-05 12:26:51-12.04086-77.05863352°199km/h997m-0.1m/s-51.9°C1.4%38.7hPa2.7V00:00:0000:00:0000:00:00
SQ9EZE-132026-09-05 12:26:41-12.04537-77.05643319°199km/h995m-0.2m/s-52.0°C1.4%39.0hPa2.7V00:00:0000:00:0000:00:00
SP9KGR-152026-09-05 12:26:38-12.04641-77.05531310°199km/h994m-0.1m/s-52.3°C1.4%39.1hPa2.7V00:00:0000:00:0000:00:00
SQ9EZE-142026-09-05 12:26:28-12.04835-77.05064278°199km/h992m-0.3m/s-52.4°C1.4%39.5hPa2.7V00:00:0000:00:0000:00:00
SQ9EZE-132026-09-05 12:26:25-12.04840-77.04910268°199km/h992m-0.4m/s-52.3°C1.4%39.6hPa2.7V00:00:0000:00:0000:00:00
SP9KGR-152026-09-05 12:26:22-12.04820-77.04757259°199km/h993m-0.2m/s-52.5°C1.4%39.7hPa2.7V00:00:0000:00:0000:00:00
SQ9EZE-142026-09-05 12:26:12-12.04581-77.04311226°199km/h994m0.0m/s-52.5°C1.4%40.0hPa2.7V00:00:0000:00:0000:00:00
SQ9EZE-132026-09-05 12:26:10-12.04505-77.04242220°199km/h993m0.3m/s-52.3°C1.4%40.1hPa2.7V00:00:0000:00:0000:00:00
SP9KGR-152026-09-05 12:26:04-12.04242-77.04092201°199km/h992m0.1m/s-52.3°C1.3%40.3hPa2.7V00:00:0000:00:0000:00:00
SQ9EZE-132026-09-05 12:25:55-12.03741-77.04058169°201km/h993m2.7m/s-53.0°C1.4%40.7hPa2.7V00:00:0000:00:0000:00:00
SP9KGR-152026-09-05 12:25:50-12.03502-77.04147152°199km/h990m0.2m/s-53.3°C1.5%40.8hPa2.7V00:00:0000:00:0000:00:00
GYPAP8-172026-09-05 12:25:49-12.03502-77.04147152°199km/h990m0.2m/s-53.3°C1.5%40.8hPa2.7V00:00:0000:00:0000:00:00
SQ9EZE-132026-09-05 12:25:38-12.03121-77.04547117°197km/h990m-2.1m/s-53.1°C1.4%41.3hPa2.7V00:00:0000:00:0000:00:00
SP9KGR-152026-09-05 12:25:33-12.03046-77.04791100°199km/h997m-1.3m/s-53.1°C1.4%41.4hPa2.7V00:00:0000:00:0000:00:00
SQ9EZE-132026-09-05 12:25:22-12.03118-77.0534566°199km/h998m-0.4m/s-53.1°C1.5%41.8hPa2.7V00:00:0000:00:0000:00:00
SP9KGR-152026-09-05 12:25:18-12.03224-77.0552053°199km/h996m-0.9m/s-53.0°C1.4%42.0hPa2.7V00:00:0000:00:0000:00:00
SQ9EZE-132026-09-05 12:25:06-12.03724-77.0584915°199km/h993m-0.1m/s-52.6°C1.4%42.4hPa2.7V00:00:0000:00:0000:00:00
SP9KGR-152026-09-05 12:25:02-12.03924-77.05875199km/h993m-0.5m/s-52.8°C1.4%42.6hPa2.7V00:00:0000:00:0000:00:00
SP9KGR-152026-09-05 12:24:47-12.04602-77.05579314°199km/h998m0.4m/s-53.3°C1.5%43.1hPa2.7V00:00:0000:00:0000:00:00
GYPAP8-172026-09-05 12:24:43-12.04722-77.05413301°199km/h999m-0.0m/s-53.4°C1.4%43.2hPa2.7V00:00:0000:00:0000:00:00
SQ9EZE-132026-09-05 12:24:35-12.04840-77.05022275°199km/h1000m-0.0m/s-54.3°C1.5%43.5hPa2.7V00:00:0000:00:0000:00:00
SP9KGR-152026-09-05 12:24:32-12.04838-77.04869265°199km/h1000m0.2m/s-54.1°C1.5%43.6hPa2.7V00:00:0000:00:0000:00:00
SQ9EZE-132026-09-05 12:24:18-12.04514-77.04249220°199km/h989m1.2m/s-53.9°C1.5%44.2hPa2.7V00:00:0000:00:0000:00:00
SP9KGR-152026-09-05 12:24:16-12.04433-77.04188214°199km/h989m0.4m/s-53.8°C1.5%44.2hPa2.7V00:00:0000:00:0000:00:00
SQ9EZE-142026-09-05 12:24:09-12.04106-77.04055192°199km/h988m0.3m/s-53.7°C1.6%44.5hPa2.7V00:00:0000:00:0000:00:00
SQ9EZE-132026-09-05 12:24:03-12.03803-77.04049172°199km/h986m0.5m/s-53.5°C1.5%44.8hPa2.7V00:00:0000:00:0000:00:00
SP9KGR-152026-09-05 12:24:01-12.03704-77.04069166°199km/h986m0.1m/s-53.4°C1.5%44.9hPa2.7V00:00:0000:00:0000:00:00
SQ9EZE-142026-09-05 12:23:54-12.03388-77.04227144°199km/h985m-0.4m/s-53.6°C1.5%45.1hPa2.7V00:00:0000:00:0000:00:00
SQ9EZE-132026-09-05 12:23:47-12.03156-77.04496121°199km/h987m0.2m/s-53.4°C1.4%45.4hPa2.7V00:00:0000:00:0000:00:00
SP9KGR-152026-09-05 12:23:46-12.03132-77.04541118°199km/h985m-0.2m/s-53.4°C1.4%45.4hPa2.7V00:00:0000:00:0000:00:00
GYPAP8-172026-09-05 12:23:41-12.03050-77.04784102°199km/h985m0.2m/s-53.8°C1.5%45.6hPa2.7V00:00:0000:00:0000:00:00
SQ9EZE-132026-09-05 12:23:31-12.03095-77.0528970°199km/h986m-0.0m/s-53.8°C1.5%46.0hPa2.7V00:00:0000:00:0000:00:00
SP9KGR-152026-09-05 12:23:31-12.03095-77.0528970°199km/h986m-0.0m/s-53.8°C1.5%46.0hPa2.7V00:00:0000:00:0000:00:00
SQ9EZE-132026-09-05 12:23:15-12.03667-77.0583219°201km/h989m-0.6m/s-54.1°C1.5%46.7hPa2.7V00:00:0000:00:0000:00:00
SP9KGR-152026-09-05 12:23:15-12.03667-77.0583219°201km/h989m-0.6m/s-54.1°C1.5%46.7hPa2.7V00:00:0000:00:0000:00:00
SQ9EZE-132026-09-05 12:23:00-12.04400-77.05746330°201km/h982m-0.5m/s-53.8°C1.5%47.2hPa2.7V00:00:0000:00:0000:00:00
SP9KGR-152026-09-05 12:22:59-12.04443-77.05719327°199km/h982m0.4m/s-53.8°C1.5%47.3hPa2.7V00:00:0000:00:0000:00:00
SQ9EZE-132026-09-05 12:22:45-12.04831-77.05131281°195km/h981m-0.9m/s-53.9°C1.5%47.8hPa2.7V00:00:0000:00:0000:00:00
SP9KGR-152026-09-05 12:22:43-12.04844-77.05029276°203km/h976m2.4m/s-53.8°C1.5%47.9hPa2.7V00:00:0000:00:0000:00:00
GYPAP8-172026-09-05 12:22:33-12.04743-77.04535243°199km/h985m-0.6m/s-53.7°C1.5%48.3hPa2.7V00:00:0000:00:0000:00:00
SQ9EZE-132026-09-05 12:22:29-12.04628-77.04365231°199km/h985m2.7m/s-53.9°C1.5%48.5hPa2.7V00:00:0000:00:0000:00:00
SP9KGR-152026-09-05 12:22:28-12.04595-77.04327228°201km/h985m1.1m/s-53.9°C1.5%48.6hPa2.7V00:00:0000:00:0000:00:00
SQ9EZE-132026-09-05 12:22:13-12.03914-77.04039180°199km/h987m-0.5m/s-53.8°C1.5%49.2hPa2.7V00:00:0000:00:0000:00:00
SP9KGR-152026-09-05 12:22:12-12.03864-77.04041176°197km/h987m-0.8m/s-53.8°C1.6%49.2hPa2.7V00:00:0000:00:0000:00:00
SQ9EZE-132026-09-05 12:21:58-12.03217-77.04401128°199km/h991m0.1m/s-53.6°C1.5%49.9hPa2.7V00:00:0000:00:0000:00:00
SP9KGR-152026-09-05 12:21:57-12.03217-77.04401128°199km/h991m0.1m/s-53.6°C1.5%49.9hPa2.7V00:00:0000:00:0000:00:00
SP9KGR-152026-09-05 12:21:41-12.03060-77.0518077°199km/h988m0.0m/s-54.1°C1.6%50.6hPa2.7V00:00:0000:00:0000:00:00
SQ9EZE-132026-09-05 12:21:41-12.03060-77.0518077°199km/h988m0.0m/s-54.1°C1.6%50.6hPa2.7V00:00:0000:00:0000:00:00
SQ9EZE-142026-09-05 12:21:29-12.03389-77.0568638°199km/h990m0.3m/s-53.6°C1.5%51.2hPa2.7V00:00:0000:00:0000:00:00
SP9KGR-152026-09-05 12:21:2649.0482421.504980km/h20711m0.0m/s-53.5°C1.5%51.3hPa2.7V00:00:0000:00:0000:00:00
GYPAP8-172026-09-05 12:21:2449.0482421.504980km/h20711m0.0m/s-53.5°C1.5%51.4hPa2.7V00:00:0000:00:0000:00:00
SQ9EZE-142026-09-05 12:21:1349.0482421.504980km/h20711m0.0m/s-54.0°C1.5%51.9hPa2.7V00:00:0000:00:0000:00:00
SP9KGR-152026-09-05 12:21:1049.0482421.504980km/h20711m0.0m/s-54.1°C1.6%52.0hPa2.7V00:00:0000:00:0000:00:00
SP9KGR-152026-09-05 12:20:5649.0478121.5046031°33km/h20677m5.6m/s-53.3°C1.5%52.8hPa2.7V00:00:0000:00:0000:00:00
SP9KGR-152026-09-05 12:20:4149.0470321.5036639°27km/h20596m6.0m/s-53.0°C1.5%53.5hPa2.7V00:00:0000:00:0000:00:00
SQ9EZE-132026-09-05 12:20:4049.0470321.5036639°27km/h20596m6.0m/s-53.0°C1.5%53.5hPa2.7V00:00:0000:00:0000:00:00
SQ9EZE-132026-09-05 12:20:2549.0464221.50284117°11km/h20494m4.1m/s-52.8°C1.5%54.2hPa2.7V00:00:0000:00:0000:00:00
SP9KGR-152026-09-05 12:20:2449.0464221.50284117°11km/h20494m4.1m/s-52.8°C1.5%54.2hPa2.7V00:00:0000:00:0000:00:00
GYPAP8-172026-09-05 12:20:1449.0462121.5020778°11km/h20440m4.1m/s-52.7°C1.4%54.7hPa2.7V00:00:0000:00:0000:00:00
SP9KGR-152026-09-05 12:20:0949.0462521.5017590°16km/h20401m3.9m/s-52.5°C1.5%55.0hPa2.7V00:00:0000:00:0000:00:00
SQ9EZE-132026-09-05 12:20:0549.0462121.5015183°22km/h20389m5.1m/s-52.3°C1.4%55.1hPa2.7V00:00:0000:00:0000:00:00
SP9KGR-152026-09-05 12:19:5449.0463321.5006496°27km/h20319m5.7m/s-52.9°C1.5%55.7hPa2.7V00:00:0000:00:0000:00:00
SQ9EZE-132026-09-05 12:19:4649.0464221.50000119°27km/h20282m5.5m/s-53.1°C1.5%56.0hPa2.7V00:00:0000:00:0000:00:00
SP9KGR-152026-09-05 12:19:3949.0467321.49896107°31km/h20245m5.5m/s-52.9°C1.5%56.4hPa2.7V00:00:0000:00:0000:00:00
SQ9EZE-132026-09-05 12:19:1549.0470121.4956398°42km/h20117m4.1m/s-53.0°C1.5%57.5hPa2.7V00:00:0000:00:0000:00:00
SP9KGR-152026-09-05 12:19:0749.0470021.4943971°44km/h20068m4.7m/s-53.0°C1.5%57.9hPa2.7V00:00:0000:00:0000:00:00
SQ9EZE-142026-09-05 12:19:0449.0469421.4937878°42km/h20049m5.3m/s-53.1°C1.5%58.1hPa2.7V00:00:0000:00:0000:00:00
SQ9EZE-132026-09-05 12:19:0049.0469021.4931986°35km/h20027m5.8m/s-53.0°C1.5%58.3hPa2.7V00:00:0000:00:0000:00:00
SP9KGR-152026-09-05 12:18:5249.0467221.4921966°44km/h19982m4.5m/s-53.3°C1.5%58.7hPa2.7V00:00:0000:00:0000:00:00
SQ9EZE-142026-09-05 12:18:4849.0466021.4917464°40km/h19967m6.9m/s-53.3°C1.5%58.8hPa2.7V00:00:0000:00:0000:00:00
SQ9EZE-132026-09-05 12:18:4549.0463421.4913738°26km/h19942m5.4m/s-53.2°C1.5%59.1hPa2.7V00:00:0000:00:0000:00:00
SP9KGR-152026-09-05 12:18:3649.0459321.4907766°35km/h19890m6.1m/s-53.0°C1.5%59.5hPa2.7V00:00:0000:00:0000:00:00
SQ9EZE-142026-09-05 12:18:3249.0457921.4902455°38km/h19869m4.7m/s-53.0°C1.5%59.7hPa2.7V00:00:0000:00:0000:00:00
SQ9EZE-132026-09-05 12:18:2249.0454221.4892178°38km/h19821m3.7m/s-53.1°C1.5%60.2hPa2.7V00:00:0000:00:0000:00:00
SP9KGR-152026-09-05 12:18:2049.0453921.4889278°44km/h19809m4.6m/s-53.1°C1.5%60.3hPa2.7V00:00:0000:00:0000:00:00
SQ9EZE-142026-09-05 12:18:1749.0453321.4884597°42km/h19794m3.8m/s-53.0°C1.5%60.5hPa2.7V00:00:0000:00:0000:00:00
SP9KGR-152026-09-05 12:18:0549.0449021.4864979°42km/h19728m4.7m/s-53.7°C1.5%61.1hPa2.7V00:00:0000:00:0000:00:00
GYPAP8-172026-09-05 12:17:5549.0447721.4851675°37km/h19678m5.3m/s-53.7°C1.5%61.6hPa2.7V00:00:0000:00:0000:00:00
SQ9EZE-132026-09-05 12:17:4849.0445521.4842579°35km/h19641m6.3m/s-54.0°C1.5%62.0hPa2.7V00:00:0000:00:0000:00:00
SP9KGR-152026-09-05 12:17:4749.0445121.4840181°29km/h19628m4.0m/s-54.1°C1.6%62.1hPa2.7V00:00:0000:00:0000:00:00
SQ9EZE-132026-09-05 12:17:3349.0445821.4825494°29km/h19557m6.1m/s-54.5°C1.5%62.7hPa2.7V00:00:0000:00:0000:00:00
SQ9EZE-132026-09-05 12:17:1849.0448321.4802685°44km/h19476m5.2m/s-55.1°C1.7%63.5hPa2.7V00:00:0000:00:0000:00:00
SP9KGR-152026-09-05 12:17:1349.0448221.4791685°46km/h19444m4.8m/s-54.9°C1.6%63.8hPa2.7V00:00:0000:00:0000:00:00
SQ9EZE-132026-09-05 12:17:0249.0446621.4774979°42km/h19392m4.1m/s-54.7°C1.6%64.3hPa2.7V00:00:0000:00:0000:00:00
SQ9EZE-132026-09-05 12:16:4749.0442021.4747564°53km/h19316m4.3m/s-55.5°C1.6%65.1hPa2.7V00:00:0000:00:0000:00:00
SP9KGR-152026-09-05 12:16:4549.0440521.4742273°46km/h19302m3.4m/s-55.5°C1.6%65.2hPa2.7V00:00:0000:00:0000:00:00
SQ9EZE-132026-09-05 12:16:3149.0434821.4722560°44km/h19233m5.8m/s-55.9°C1.7%65.9hPa2.7V00:00:0000:00:0000:00:00
GYPAP8-172026-09-05 12:16:2849.0433021.4717071°38km/h19213m3.9m/s-55.8°C1.7%66.2hPa2.7V00:00:0000:00:0000:00:00
SQ9EZE-132026-09-05 12:16:1749.0430121.4705367°31km/h19150m6.9m/s-55.4°C1.7%66.8hPa2.7V00:00:0000:00:0000:00:00
SP9KGR-152026-09-05 12:16:1349.0428921.4700871°31km/h19128m4.0m/s-55.1°C1.6%67.1hPa2.7V00:00:0000:00:0000:00:00
SQ9EZE-142026-09-05 12:16:1249.0428921.4700871°31km/h19128m4.0m/s-55.1°C1.6%67.1hPa2.7V00:00:0000:00:0000:00:00
SQ9EZE-132026-09-05 12:15:5949.0426221.4690771°26km/h19059m5.1m/s-54.6°C1.6%67.8hPa2.7V00:00:0000:00:0000:00:00
SP9KGR-152026-09-05 12:15:5749.0425421.4687769°27km/h19043m5.1m/s-54.5°C1.6%68.0hPa2.7V00:00:0000:00:0000:00:00
SQ9EZE-142026-09-05 12:15:5649.0425421.4687769°27km/h19043m5.1m/s-54.5°C1.6%68.0hPa2.7V00:00:0000:00:0000:00:00
SQ9EZE-132026-09-05 12:15:4349.0423321.4677377°27km/h18974m6.7m/s-54.0°C1.6%68.7hPa2.7V00:00:0000:00:0000:00:00
SP9KGR-152026-09-05 12:15:4149.0422721.4674773°18km/h18957m5.9m/s-54.1°C1.6%68.9hPa2.7V00:00:0000:00:0000:00:00
SQ9EZE-132026-09-05 12:15:2849.0421421.4665986°20km/h18887m5.1m/s-53.5°C1.6%69.7hPa2.7V00:00:0000:00:0000:00:00
SP9KGR-152026-09-05 12:15:2549.0421421.4664492°18km/h18876m4.6m/s-53.4°C1.6%69.8hPa2.7V00:00:0000:00:0000:00:00
SQ9EZE-132026-09-05 12:15:1249.0420921.4654185°26km/h18803m6.9m/s-52.9°C1.5%70.6hPa2.7V00:00:0000:00:0000:00:00
SP9KGR-152026-09-05 12:15:1049.0420821.4652392°22km/h18793m5.5m/s-52.8°C1.5%70.7hPa2.7V00:00:0000:00:0000:00:00
GYPAP8-172026-09-05 12:14:5949.0420621.4642581°24km/h18724m6.0m/s-52.3°C1.5%71.4hPa2.7V00:00:0000:00:0000:00:00
SQ9EZE-132026-09-05 12:14:5649.0420621.4640994°22km/h18712m4.4m/s-52.3°C1.5%71.6hPa2.7V00:00:0000:00:0000:00:00
SP9KGR-152026-09-05 12:14:5449.0420621.4639191°24km/h18701m5.5m/s-52.3°C1.5%71.7hPa2.7V00:00:0000:00:0000:00:00
SQ9EZE-132026-09-05 12:14:4149.0420321.4626868°26km/h18629m5.3m/s-52.0°C1.4%72.5hPa2.7V00:00:0000:00:0000:00:00
SP9KGR-152026-09-05 12:14:4049.0419921.4625273°20km/h18616m5.1m/s-52.0°C1.4%72.6hPa2.7V00:00:0000:00:0000:00:00
SQ9EZE-132026-09-05 12:14:2549.0418621.4610781°27km/h18536m4.7m/s-52.4°C1.4%73.5hPa2.7V00:00:0000:00:0000:00:00
SP9KGR-152026-09-05 12:14:2449.0418521.4608689°26km/h18526m5.2m/s-52.3°C1.4%73.6hPa2.7V00:00:0000:00:0000:00:00
SQ9EZE-132026-09-05 12:14:1049.0419221.4591087°37km/h18454m3.9m/s-52.6°C1.4%74.4hPa2.7V00:00:0000:00:0000:00:00
SP9KGR-152026-09-05 12:14:0849.0419021.4588183°38km/h18443m5.8m/s-53.2°C1.4%74.5hPa2.7V00:00:0000:00:0000:00:00
SQ9EZE-132026-09-05 12:13:5549.0420421.4565992°44km/h18369m6.2m/s-54.0°C1.6%75.5hPa2.7V00:00:0000:00:0000:00:00
SP9KGR-152026-09-05 12:13:5349.0420421.4564394°42km/h18364m4.6m/s-54.0°C1.6%75.5hPa2.7V00:00:0000:00:0000:00:00
SQ9EZE-132026-09-05 12:13:4049.0422021.4539989°44km/h18293m4.4m/s-54.2°C1.5%76.4hPa2.7V00:00:0000:00:0000:00:00
SP9KGR-152026-09-05 12:13:3849.0422021.4536491°47km/h18281m5.4m/s-54.3°C1.5%76.5hPa2.7V00:00:0000:00:0000:00:00
SQ9EZE-142026-09-05 12:13:2449.0420921.4513487°53km/h18206m5.9m/s-54.8°C1.6%77.4hPa2.7V00:00:0000:00:0000:00:00
SP9KGR-152026-09-05 12:13:2249.0420921.4511490°53km/h18200m5.7m/s-54.7°C1.6%77.5hPa2.7V00:00:0000:00:0000:00:00
GYPAP8-172026-09-05 12:13:1649.0420321.4500871°29km/h18160m8.3m/s-54.9°C1.7%78.0hPa2.7V00:00:0000:00:0000:00:00
SP9KGR-152026-09-05 12:13:0849.0417721.4489778°44km/h18117m8.8m/s-55.1°C1.7%78.5hPa2.7V00:00:0000:00:0000:00:00
SQ9EZE-132026-09-05 12:12:5249.0415421.4470979°33km/h18020m8.0m/s-54.5°C1.7%79.6hPa2.7V00:00:0000:00:0000:00:00
SP9KGR-152026-09-05 12:12:5149.0415221.4469681°37km/h18015m2.1m/s-54.5°C1.7%79.7hPa2.7V00:00:0000:00:0000:00:00
SQ9EZE-132026-09-05 12:12:3649.0415321.4450889°35km/h17930m4.3m/s-53.9°C1.6%80.8hPa2.7V00:00:0000:00:0000:00:00
SQ9EZE-132026-09-05 12:12:2249.0417621.44316106°38km/h17843m3.8m/s-53.8°C1.6%81.9hPa2.7V00:00:0000:00:0000:00:00
SQ9EZE-132026-09-05 12:12:0649.0422721.44106116°46km/h17756m3.9m/s-54.2°C1.6%83.0hPa2.7V00:00:0000:00:0000:00:00
GYPAP8-172026-09-05 12:11:5249.0427721.43867102°51km/h17678m10.3m/s-54.3°C1.6%84.1hPa2.7V00:00:0000:00:0000:00:00
SQ9EZE-132026-09-05 12:11:5149.0428121.4382699°53km/h17665m7.3m/s-54.4°C1.6%84.2hPa2.7V00:00:0000:00:0000:00:00
SP9KGR-152026-09-05 12:11:3649.0432121.4348996°60km/h17580m2.9m/s-55.4°C1.8%85.4hPa2.7V00:00:0000:00:0000:00:00
SQ9EZE-132026-09-05 12:11:2049.0430621.4314986°57km/h17492m5.4m/s-55.3°C1.8%86.6hPa2.7V00:00:0000:00:0000:00:00
SP9KGR-152026-09-05 12:11:1949.0430521.4312786°55km/h17486m7.3m/s-55.2°C1.7%86.6hPa2.7V00:00:0000:00:0000:00:00
SQ9EZE-132026-09-05 12:11:0549.0427321.4281886°46km/h17393m6.0m/s-55.2°C1.8%87.9hPa2.7V00:00:0000:00:0000:00:00
SP9KGR-152026-09-05 12:11:0449.0427121.4280181°49km/h17387m4.7m/s-55.1°C1.7%87.9hPa2.7V00:00:0000:00:0000:00:00
SQ9EZE-142026-09-05 12:11:0249.0426921.4278280°51km/h17381m8.6m/s-55.1°C1.8%88.0hPa2.7V00:00:0000:00:0000:00:00
SQ9EZE-132026-09-05 12:10:4949.0423021.4249573°53km/h17305m3.6m/s-55.0°C1.8%89.1hPa2.7V00:00:0000:00:0000:00:00
SP9KGR-152026-09-05 12:10:4849.0422621.4247670°53km/h17299m8.1m/s-54.9°C1.8%89.1hPa2.7V00:00:0000:00:0000:00:00
GYPAP8-172026-09-05 12:10:4749.0422121.4245771°53km/h17293m3.5m/s-54.9°C1.7%89.3hPa2.7V00:00:0000:00:0000:00:00
SP9KGR-152026-09-05 12:10:3349.0418621.4215779°44km/h17207m5.7m/s-54.9°C1.8%90.5hPa2.7V00:00:0000:00:0000:00:00
SP9KGR-152026-09-05 12:10:1749.0416621.4190493°31km/h17108m6.0m/s-54.3°C1.7%91.9hPa2.7V00:00:0000:00:0000:00:00
SQ9EZE-132026-09-05 12:10:1649.0416621.4189195°35km/h17102m5.8m/s-54.2°C1.7%92.0hPa2.7V00:00:0000:00:0000:00:00
SP9KGR-152026-09-05 12:10:0249.0416421.4164587°35km/h17023m6.1m/s-53.9°C1.7%93.1hPa2.7V00:00:0000:00:0000:00:00
SQ9EZE-132026-09-05 12:09:5649.0416421.4152599°58km/h16982m5.5m/s-54.1°C1.7%93.7hPa2.7V00:00:0000:00:0000:00:00
SP9KGR-152026-09-05 12:09:4749.0418621.41310103°62km/h16922m5.5m/s-53.8°C1.7%94.6hPa2.7V00:00:0000:00:0000:00:00
GYPAP8-172026-09-05 12:09:4149.0419921.4116694°64km/h16889m5.8m/s-53.6°C1.7%95.0hPa2.7V00:00:0000:00:0000:00:00
SQ9EZE-132026-09-05 12:09:3649.0420821.4104699°60km/h16862m5.2m/s-53.7°C1.7%95.4hPa2.7V00:00:0000:00:0000:00:00
SP9KGR-152026-09-05 12:09:2849.0422521.4088697°64km/h16827m4.7m/s-53.6°C1.7%96.0hPa2.7V00:00:0000:00:0000:00:00
SQ9EZE-132026-09-05 12:09:2149.0422721.4070290°55km/h16787m4.7m/s-53.5°C1.7%96.6hPa2.7V00:00:0000:00:0000:00:00
SP9KGR-152026-09-05 12:09:1249.0422221.4050986°66km/h16746m4.7m/s-53.3°C1.6%97.2hPa2.7V00:00:0000:00:0000:00:00
SQ9EZE-132026-09-05 12:09:0449.0421121.4032583°60km/h16704m5.0m/s-53.3°C1.6%97.8hPa2.7V00:00:0000:00:0000:00:00
SP9KGR-152026-09-05 12:08:5649.0419321.4014084°57km/h16665m5.1m/s-55.7°C1.9%98.4hPa2.7V00:00:0000:00:0000:00:00
SQ9EZE-132026-09-05 12:08:4949.0417121.3998677°66km/h16633m4.0m/s-56.0°C1.9%98.9hPa2.7V00:00:0000:00:0000:00:00
SP9KGR-152026-09-05 12:08:4149.0414021.3976680°77km/h16594m4.9m/s-55.8°C1.9%99.5hPa2.7V00:00:0000:00:0000:00:00
SQ9EZE-142026-09-05 12:08:4049.0413621.3973681°77km/h16588m4.9m/s-55.8°C1.9%99.6hPa2.7V00:00:0000:00:0000:00:00
SQ9EZE-132026-09-05 12:08:3349.0411821.3953681°73km/h16552m4.4m/s-55.6°C1.9%100.2hPa2.7V00:00:0000:00:0000:00:00
GYPAP8-172026-09-05 12:08:3049.0410621.3945378°75km/h16537m3.9m/s-55.5°C1.9%100.4hPa2.7V00:00:0000:00:0000:00:00
SP9KGR-152026-09-05 12:08:2649.0409121.3933880°78km/h16517m5.9m/s-55.5°C1.9%100.7hPa2.7V00:00:0000:00:0000:00:00
SQ9EZE-142026-09-05 12:08:2449.0408421.3927980°77km/h16508m4.5m/s-55.4°C2.0%100.9hPa2.7V00:00:0000:00:0000:00:00
SQ9EZE-132026-09-05 12:08:1849.0405921.3909279°73km/h16472m4.8m/s-55.3°C2.0%101.4hPa2.7V00:00:0000:00:0000:00:00
SP9KGR-152026-09-05 12:08:1149.0403321.3891180°82km/h16444m3.5m/s-55.1°C1.9%101.9hPa2.7V00:00:0000:00:0000:00:00
SQ9EZE-132026-09-05 12:07:5649.0396421.3848776°73km/h16370m5.1m/s-54.6°C1.9%103.0hPa2.7V00:00:0000:00:0000:00:00
SP9KGR-152026-09-05 12:07:5549.0396021.3846077°69km/h16364m6.7m/s-54.6°C1.9%103.2hPa2.7V00:00:0000:00:0000:00:00
SQ9EZE-132026-09-05 12:07:4049.0389521.3807876°62km/h16289m4.4m/s-54.3°C2.0%104.4hPa2.7V00:00:0000:00:0000:00:00
SP9KGR-152026-09-05 12:07:3949.0389021.3805575°64km/h16285m3.0m/s-54.3°C1.9%104.5hPa2.7V00:00:0000:00:0000:00:00
SQ9EZE-132026-09-05 12:07:2549.0384821.3770287°68km/h16213m4.8m/s-54.4°C2.0%105.7hPa2.7V00:00:0000:00:0000:00:00
SP9KGR-152026-09-05 12:07:2449.0384721.3767686°68km/h16208m5.0m/s-54.4°C1.9%105.7hPa2.7V00:00:0000:00:0000:00:00
SQ9EZE-132026-09-05 12:07:1049.0382721.3729086°64km/h16135m3.1m/s-54.7°C2.0%106.9hPa2.7V00:00:0000:00:0000:00:00
SP9KGR-152026-09-05 12:07:0849.0382521.3726686°64km/h16130m5.8m/s-54.7°C2.0%107.0hPa2.7V00:00:0000:00:0000:00:00
SQ9EZE-132026-09-05 12:06:5349.0382221.3684792°69km/h16052m5.5m/s-55.0°C2.1%108.3hPa2.7V00:00:0000:00:0000:00:00
SP9KGR-152026-09-05 12:06:5249.0382221.3681991°71km/h16047m5.2m/s-55.0°C2.1%108.4hPa2.7V00:00:0000:00:0000:00:00
GYPAP8-172026-09-05 12:06:5049.0382121.3676488°75km/h16038m5.7m/s-55.1°C2.1%108.6hPa2.7V00:00:0000:00:0000:00:00
SQ9EZE-132026-09-05 12:06:3849.0382321.3640694°82km/h15978m5.4m/s-54.8°C2.1%109.6hPa2.7V00:00:0000:00:0000:00:00
SP9KGR-152026-09-05 12:06:3749.0382321.3637593°82km/h15973m3.8m/s-54.7°C2.1%109.7hPa2.7V00:00:0000:00:0000:00:00
SQ9EZE-132026-09-05 12:06:2249.0383921.3591897°82km/h15902m6.1m/s-54.7°C2.1%110.9hPa2.7V00:00:0000:00:0000:00:00
SP9KGR-152026-09-05 12:06:2149.0384021.3588694°84km/h15897m3.7m/s-54.7°C2.1%111.0hPa2.7V00:00:0000:00:0000:00:00
SQ9EZE-142026-09-05 12:06:1849.0384421.3579294°78km/h15882m4.3m/s-54.6°C2.0%111.3hPa2.7V00:00:0000:00:0000:00:00
SQ9EZE-132026-09-05 12:06:0749.0385421.3546589°78km/h15833m4.9m/s-54.4°C2.1%112.1hPa2.7V00:00:0000:00:0000:00:00
SP9KGR-152026-09-05 12:06:0549.0385221.3540389°82km/h15824m5.4m/s-54.4°C2.1%112.3hPa2.7V00:00:0000:00:0000:00:00
SQ9EZE-142026-09-05 12:06:0249.0385221.3530890°80km/h15811m5.2m/s-54.4°C2.1%112.5hPa2.7V00:00:0000:00:0000:00:00
SQ9EZE-132026-09-05 12:05:5249.0384921.3500389°88km/h15765m5.3m/s-54.9°C2.2%113.3hPa2.7V00:00:0000:00:0000:00:00
SP9KGR-152026-09-05 12:05:5049.0384721.3493789°86km/h15756m4.2m/s-54.9°C2.2%113.5hPa2.7V00:00:0000:00:0000:00:00
GYPAP8-172026-09-05 12:05:4649.0384221.3477583°84km/h15734m4.2m/s-54.8°C2.2%113.9hPa2.7V00:00:0000:00:0000:00:00
OE3JTB-152026-09-05 12:05:4049.0382121.3458084°89km/h15705m5.0m/s-54.7°C4.9%114.4hPa2.7V00:00:0000:00:0000:00:00
SQ9EZE-132026-09-05 12:05:3649.0381521.3448186°86km/h15690m5.7m/s-54.9°C2.2%114.6hPa2.7V00:00:0000:00:0000:00:00
SP9KGR-152026-09-05 12:05:3549.0381321.3444885°84km/h15686m4.1m/s-54.9°C2.2%114.7hPa2.7V00:00:0000:00:0000:00:00
SQ9EZE-132026-09-05 12:05:2249.0377821.3398890°89km/h15622m4.5m/s-55.1°C2.2%115.9hPa2.7V00:00:0000:00:0000:00:00
SP9KGR-152026-09-05 12:05:1949.0377621.3391889°89km/h15614m4.6m/s-55.2°C2.2%116.0hPa2.7V00:00:0000:00:0000:00:00
OE3JTB-152026-09-05 12:05:1149.0376821.3360089°106km/h15573m5.2m/s-55.3°C5.0%116.7hPa2.7V00:00:0001:44:0800:00:00
SQ9EZE-132026-09-05 12:05:0649.0376921.3341892°97km/h15550m5.0m/s-55.5°C2.2%117.2hPa2.7V00:00:0000:00:0000:00:00
SP9KGR-152026-09-05 12:05:0449.0376921.3338091°99km/h15546m4.1m/s-55.6°C2.3%117.3hPa2.7V00:00:0000:00:0000:00:00
SQ9EZE-132026-09-05 12:04:5049.0378221.3283492°102km/h15484m2.8m/s-56.0°C2.4%118.4hPa2.7V00:00:0000:00:0000:00:00
SP9KGR-152026-09-05 12:04:4849.0378221.3275591°106km/h15475m5.2m/s!°C2.4%118.5hPa2.7V00:00:0000:00:0000:00:00
SQ9EZE-132026-09-05 12:04:3549.0377321.3222589°102km/h15414m4.5m/s-55.9°C2.4%119.7hPa2.7V00:00:0000:00:0000:00:00
GYPAP8-172026-09-05 12:04:3349.0377121.3214489°106km/h15405m5.7m/s-55.9°C2.4%119.9hPa2.7V00:00:0000:00:0000:00:00
SP9KGR-152026-09-05 12:04:3249.0377021.3210389°110km/h15401m3.3m/s-55.9°C2.4%120.0hPa2.7V00:00:0000:00:0000:00:00
SQ9EZE-132026-09-05 12:04:1949.0374221.3158286°97km/h15341m5.2m/s-55.5°C2.3%121.1hPa2.7V00:00:0000:00:0000:00:00
SP9KGR-152026-09-05 12:04:1749.0373821.3150886°97km/h15331m5.4m/s-55.5°C2.3%121.3hPa2.7V00:00:0000:00:0000:00:00
SQ9EZE-132026-09-05 12:04:0549.0368821.3100982°106km/h15268m6.0m/s-56.1°C2.5%122.5hPa2.7V00:00:0000:00:0000:00:00
SP9KGR-152026-09-05 12:04:0149.0368221.3089092°102km/h15254m5.7m/s-56.0°C2.4%122.7hPa2.7V00:00:0000:00:0000:00:00
SQ9EZE-142026-09-05 12:03:5749.0367521.3074381°91km/h15226m9.3m/s-56.0°C2.4%123.3hPa2.7V00:00:0000:00:0000:00:00
SQ9EZE-132026-09-05 12:03:4849.0363221.3045180°86km/h15175m5.9m/s-55.6°C2.4%124.3hPa2.7V00:00:0000:00:0000:00:00
SP9KGR-152026-09-05 12:03:4649.0362221.3038579°89km/h15165m4.6m/s-55.6°C2.4%124.5hPa2.7V00:00:0000:00:0000:00:00
SQ9EZE-142026-09-05 12:03:4149.0359921.3021977°88km/h15142m3.8m/s-55.4°C2.4%124.9hPa2.7V00:00:0000:00:0000:00:00
SQ9EZE-132026-09-05 12:03:3449.0355921.2996279°84km/h15103m3.7m/s-55.4°C2.4%125.8hPa2.7V00:00:0000:00:0000:00:00
SP9KGR-152026-09-05 12:03:3149.0355021.2989778°88km/h15092m5.9m/s-55.4°C2.4%125.9hPa2.7V00:00:0000:00:0000:00:00
GYPAP8-172026-09-05 12:03:3049.0354521.2986477°89km/h15087m3.6m/s-55.3°C2.4%126.0hPa2.7V00:00:0000:00:0000:00:00
SQ9EZE-132026-09-05 12:03:1849.0348521.2948087°78km/h15025m4.8m/s-55.4°C2.6%127.2hPa2.7V00:00:0000:00:0000:00:00
SP9KGR-152026-09-05 12:03:1549.0347621.2939076°82km/h15010m4.7m/s-55.3°C2.5%127.5hPa2.7V00:00:0000:00:0000:00:00
SQ9EZE-132026-09-05 12:03:0349.0341921.2896988°80km/h14924m6.7m/s-55.2°C2.3%129.2hPa2.7V00:00:0000:00:0000:00:00
SP9KGR-152026-09-05 12:03:0049.0341621.2890584°89km/h14913m4.2m/s-55.1°C2.3%129.4hPa2.7V00:00:0000:00:0000:00:00
SQ9EZE-132026-09-05 12:02:4649.0338821.2840188°97km/h14834m5.6m/s-55.6°C2.5%131.1hPa2.7V00:00:0000:00:0000:00:00
SP9KGR-152026-09-05 12:02:4549.0338621.2832589°100km/h14824m5.4m/s-55.6°C2.5%131.3hPa2.7V00:00:0000:00:0000:00:00
SQ9EZE-132026-09-05 12:02:3149.0336121.2778490°111km/h14749m6.2m/s-55.5°C2.4%132.8hPa2.7V00:00:0000:00:0000:00:00
SP9KGR-152026-09-05 12:02:3049.0336021.2774191°113km/h14743m5.7m/s-55.6°C2.4%132.9hPa2.7V00:00:0000:00:0000:00:00
SQ9EZE-132026-09-05 12:02:1549.0332121.2713685°117km/h14660m5.9m/s-55.6°C2.5%134.6hPa2.7V00:00:0000:00:0000:00:00
SP9KGR-152026-09-05 12:02:1449.0331721.2709183°117km/h14654m5.8m/s-55.6°C2.5%134.8hPa2.7V00:00:0000:00:0000:00:00
SQ9EZE-132026-09-05 12:02:0049.0325521.2645284°111km/h14561m5.8m/s-54.8°C2.4%136.8hPa2.7V00:00:0000:00:0000:00:00
SP9KGR-152026-09-05 12:01:5949.0325121.2641082°111km/h14556m3.5m/s-54.8°C2.4%136.9hPa2.7V00:00:0000:00:0000:00:00
SQ9EZE-132026-09-05 12:01:4349.0317121.2577383°111km/h14458m5.8m/s-54.0°C2.3%138.9hPa2.7V00:00:0000:00:0000:00:00
SP9KGR-152026-09-05 12:01:4049.0315821.2564979°110km/h14441m4.8m/s-53.8°C2.3%139.3hPa2.7V00:00:0000:00:0000:00:00
SQ9EZE-132026-09-05 12:01:2749.0308621.2510780°110km/h14367m5.6m/s-53.2°C2.2%141.0hPa2.7V00:00:0000:00:0000:00:00
GYPAP8-172026-09-05 12:01:2549.0306921.2498677°110km/h14352m6.7m/s-53.2°C2.1%141.2hPa2.7V00:00:0000:00:0000:00:00
SQ9EZE-142026-09-05 12:01:0549.0295821.2421880°115km/h14235m4.5m/s-53.2°C2.1%143.8hPa2.7V00:00:0000:00:0000:00:00
SQ9EZE-132026-09-05 12:00:5549.0291321.2375777°111km/h14174m5.3m/s-53.1°C2.1%145.1hPa2.7V00:00:0000:00:0000:00:00
SQ9EZE-142026-09-05 12:00:5049.0288821.2359381°108km/h14153m2.6m/s-53.0°C2.1%145.6hPa2.7V00:00:0000:00:0000:00:00
SP9KGR-152026-09-05 12:00:4049.0286321.2311987°102km/h14091m7.0m/s-53.1°C2.1%147.1hPa2.7V00:00:0000:00:0000:00:00
SQ9EZE-132026-09-05 12:00:3849.0286121.2308088°100km/h14085m4.7m/s-53.2°C2.1%147.2hPa2.7V00:00:0000:00:0000:00:00
GYPAP8-172026-09-05 12:00:2349.0282121.2244183°106km/h13997m6.0m/s-53.1°C2.1%149.4hPa2.7V00:00:0000:00:0000:00:00
SP9KGR-152026-09-05 12:00:0849.0278221.2183683°110km/h13920m3.6m/s-53.2°C2.2%151.3hPa2.7V00:00:0000:00:0000:00:00
SQ9EZE-132026-09-05 12:00:0749.0277921.2179583°110km/h13914m9.1m/s-53.1°C2.2%151.4hPa2.7V00:00:0000:00:0000:00:00
SQ9EZE-132026-09-05 11:59:5249.0273521.2114990°106km/h13806m5.5m/s-54.1°C2.4%153.9hPa2.7V00:00:0000:00:0000:00:00
OE3JTB-152026-09-05 11:59:4149.0272321.2065185°131km/h13731m5.4m/s-54.1°C5.1%155.6hPa2.7V00:00:0000:00:0008:30:00
SQ9EZE-132026-09-05 11:59:2149.0272721.1989093°100km/h13619m8.3m/s-53.8°C2.5%158.3hPa2.9V00:00:0000:00:0000:00:00
SP9KGR-152026-09-05 11:59:2049.0272821.1985193°106km/h13613m4.0m/s-53.8°C2.5%158.5hPa2.9V00:00:0000:00:0000:00:00
GYPAP8-172026-09-05 11:59:1849.0272721.1976989°108km/h13602m4.3m/s-53.7°C2.4%158.8hPa2.9V00:00:0000:00:0000:00:00
SQ9EZE-132026-09-05 11:59:0649.0275121.1927595°108km/h13529m5.8m/s-53.0°C2.4%160.6hPa2.9V00:00:0000:00:0000:00:00
SP9KGR-152026-09-05 11:59:0549.0275421.1923397°110km/h13522m7.7m/s-52.9°C2.4%160.8hPa2.9V00:00:0000:00:0000:00:00
SQ9EZE-132026-09-05 11:58:5049.0282321.18587100°111km/h13423m6.7m/s-52.9°C2.5%163.4hPa2.9V00:00:0000:00:0000:00:00
SP9KGR-152026-09-05 11:58:4949.0282821.18544100°115km/h13419m3.4m/s-52.9°C2.5%163.5hPa2.9V00:00:0000:00:0000:00:00
SQ9EZE-142026-09-05 11:58:4349.0286821.18232103°122km/h13377m4.9m/s-53.1°C2.6%164.6hPa2.9V00:00:0000:00:0000:00:00
SP9KGR-152026-09-05 11:58:3449.0290621.1784499°128km/h13324m4.9m/s-53.2°C2.8%166.0hPa2.9V00:00:0000:00:0000:00:00
SQ9EZE-142026-09-05 11:58:2649.0294521.17454101°133km/h13271m4.5m/s-53.6°C2.9%167.3hPa2.9V00:00:0000:00:0000:00:00
SQ9EZE-132026-09-05 11:58:1949.0297721.1709396°144km/h13232m8.2m/s-53.6°C3.1%168.3hPa2.9V00:00:0000:00:0000:00:00
SP9KGR-152026-09-05 11:58:1849.0298021.1703896°148km/h13225m5.0m/s-53.5°C3.1%168.5hPa2.9V00:00:0000:00:0000:00:00
GYPAP8-172026-09-05 11:58:1549.0299321.1686999°146km/h13208m6.5m/s-53.5°C3.2%168.9hPa2.9V00:00:0000:00:0000:00:00
SP9KGR-152026-09-05 11:58:0349.0305821.1611498°166km/h13121m9.5m/s-55.5°C4.0%171.2hPa2.9V00:00:0000:00:0000:00:00
SQ9EZE-132026-09-05 11:57:4849.0309021.1522792°162km/h13028m4.7m/s-55.6°C4.5%173.6hPa2.9V00:00:0000:00:0000:00:00
SP9KGR-152026-09-05 11:57:4749.0309121.1516592°161km/h13022m7.7m/s-55.6°C4.6%173.8hPa2.9V00:00:0000:00:0000:00:00
SQ9EZE-132026-09-05 11:57:3349.0308021.1427787°128km/h12921m6.9m/s-55.1°C4.8%176.5hPa2.9V00:00:0000:00:0000:00:00
SP9KGR-152026-09-05 11:57:3249.0307721.1422987°122km/h12914m6.8m/s-55.1°C4.9%176.7hPa2.9V00:00:0000:00:0000:00:00
SQ9EZE-132026-09-05 11:57:1749.0302121.1348485°148km/h12820m5.6m/s-54.8°C5.8%179.3hPa2.9V00:00:0000:00:0000:00:00
SP9KGR-152026-09-05 11:57:1549.0300921.1337379°144km/h12810m6.5m/s-54.8°C6.0%179.6hPa2.9V00:00:0000:00:0000:00:00
GYPAP8-172026-09-05 11:57:1249.0298221.1321575°142km/h12790m7.0m/s-54.9°C6.2%180.2hPa2.9V00:00:0000:00:0000:00:00
SQ9EZE-132026-09-05 11:57:0149.0292221.1263079°148km/h12717m9.5m/s-54.7°C7.2%182.3hPa2.9V00:00:0000:00:0000:00:00
SP9KGR-152026-09-05 11:56:5949.0290521.1252177°146km/h12702m5.9m/s-54.7°C7.6%182.7hPa2.9V00:00:0000:00:0000:00:00
SP9KGR-152026-09-05 11:56:4449.0275521.1167681°141km/h12601m7.4m/s-55.4°C10.6%185.6hPa2.9V00:00:0000:00:0000:00:00
SP9KGR-152026-09-05 11:56:2849.0264721.1081081°144km/h12498m7.4m/s-55.7°C14.3%188.7hPa2.9V00:00:0000:00:0000:00:00
SP9KGR-152026-09-05 11:56:1349.0259821.1007590°128km/h12387m6.4m/s-56.8°C20.3%191.9hPa2.9V00:00:0000:00:0000:00:00
SQ9EZE-132026-09-05 11:56:1249.0259721.1002688°128km/h12381m5.2m/s-57.0°C21.0%192.1hPa2.9V00:00:0000:00:0000:00:00
GYPAP8-172026-09-05 11:56:0849.0258521.0982485°137km/h12352m6.3m/s-57.4°C22.9%193.0hPa2.9V00:00:0000:00:0000:00:00
SQ9EZE-142026-09-05 11:55:4949.0254221.0873387°150km/h12226m8.9m/s-59.0°C31.9%196.9hPa2.9V00:00:0000:00:0000:00:00
SQ9EZE-132026-09-05 11:55:4149.0250321.0828784°148km/h12176m4.2m/s-59.1°C33.3%198.5hPa2.9V00:00:0000:00:0000:00:00
SQ9EZE-142026-09-05 11:55:3449.0247221.0782783°159km/h12119m4.4m/s-59.1°C32.7%200.3hPa2.9V00:00:0000:00:0000:00:00
SQ9EZE-132026-09-05 11:55:2549.0244421.0736986°142km/h12077m3.9m/s-58.9°C34.0%201.6hPa2.9V00:00:0000:00:0000:00:00
SP9KGR-152026-09-05 11:55:1049.0239621.0652688°139km/h12000m4.5m/s-58.9°C39.2%204.1hPa2.9V00:00:0000:00:0000:00:00
GYPAP8-172026-09-05 11:54:5749.0237821.0576788°150km/h11930m7.3m/s-58.5°C43.8%206.4hPa2.9V00:00:0000:00:0000:00:00
SP9KGR-152026-09-05 11:54:5449.0237221.0559887°146km/h11912m5.4m/s-58.4°C44.2%206.9hPa2.9V00:00:0000:00:0000:00:00
SQ9EZE-132026-09-05 11:54:5149.0236921.0542792°148km/h11894m7.1m/s-58.2°C44.3%207.5hPa2.9V00:00:0000:00:0000:00:00
SP9KGR-152026-09-05 11:54:3849.0234221.0466486°142km/h11807m8.4m/s-58.2°C52.9%210.3hPa2.9V00:00:0000:00:0000:00:00
SQ9EZE-132026-09-05 11:54:3649.0233321.0455481°146km/h11792m6.0m/s-58.2°C55.1%210.9hPa2.9V00:00:0000:00:0000:00:00
SP9KGR-152026-09-05 11:54:2249.0224921.0378885°144km/h11699m6.9m/s-58.5°C60.1%214.0hPa2.9V00:00:0000:00:0000:00:00
SP9KGR-152026-09-05 11:54:0749.0216921.0291783°162km/h11604m4.8m/s-57.5°C59.7%217.2hPa2.9V00:00:0000:00:0000:00:00
SQ9EZE-132026-09-05 11:54:0649.0216021.0279285°164km/h11593m6.5m/s-57.5°C60.3%217.6hPa2.9V00:00:0000:00:0000:00:00
SP9KGR-152026-09-05 11:53:5149.0211621.0196786°159km/h11510m7.9m/s-56.8°C54.3%220.6hPa2.9V00:00:0000:00:0000:00:00
SQ9EZE-132026-09-05 11:53:4949.0210621.0184782°157km/h11497m4.3m/s-56.7°C54.4%221.1hPa2.9V00:00:0000:00:0000:00:00
SP9KGR-152026-09-05 11:53:3649.0203021.0105783°148km/h11427m4.4m/s-56.2°C51.1%223.6hPa2.9V00:00:0000:00:0000:00:00
SQ9EZE-142026-09-05 11:53:3349.0201121.0084783°137km/h11411m3.1m/s-56.0°C50.4%224.2hPa2.9V00:00:0000:00:0000:00:00
SP9KGR-152026-09-05 11:53:2049.0193121.0010783°164km/h11323m9.7m/s-55.6°C37.3%227.3hPa2.9V00:00:0000:00:0000:00:00
SQ9EZE-132026-09-05 11:53:1749.0191120.9992179°159km/h11297m6.8m/s-55.6°C35.9%228.2hPa2.9V00:00:0000:00:0000:00:00
SP9KGR-152026-09-05 11:53:0449.0181720.9916183°150km/h11217m5.9m/s-55.0°C34.2%231.1hPa2.9V00:00:0000:00:0000:00:00
SQ9EZE-132026-09-05 11:53:0149.0180620.9899288°148km/h11200m5.2m/s-54.8°C34.4%231.7hPa2.9V00:00:0000:00:0000:00:00
GYPAP8-172026-09-05 11:52:5349.0178620.9850287°168km/h11139m9.6m/s-54.3°C32.3%233.9hPa2.9V00:00:0000:00:0000:00:00
SP9KGR-152026-09-05 11:52:4949.0176620.9824482°166km/h11106m5.7m/s-54.0°C32.3%235.0hPa2.9V00:00:0000:00:0000:00:00
SQ9EZE-132026-09-05 11:52:4549.0173220.9799878°162km/h11078m6.8m/s-53.7°C31.5%236.0hPa2.9V00:00:0000:00:0000:00:00
SP9KGR-152026-09-05 11:52:3349.0164820.9726284°151km/h10995m3.3m/s-53.0°C0%0hPa2.9V00:00:0000:00:0000:00:00
SQ9EZE-132026-09-05 11:52:2949.0163220.9703884°141km/h10974m4.2m/s-52.8°C29.7%239.9hPa2.9V00:00:0000:00:0000:00:00
SP9KGR-152026-09-05 11:52:1849.0156320.9640579°159km/h10905m4.4m/s-52.1°C0%0hPa2.9V00:00:0000:00:0000:00:00
SQ9EZE-132026-09-05 11:52:1449.0153520.9616983°155km/h10883m5.2m/s-52.0°C28.0%243.4hPa2.9V00:00:0000:00:0000:00:00
GYPAP8-172026-09-05 11:52:0249.0146420.9546089°161km/h10825m5.6m/s-51.5°C26.8%245.5hPa2.9V00:00:0000:00:0000:00:00
SQ9EZE-132026-09-05 11:51:5849.0145520.9521085°161km/h10807m4.2m/s-51.3°C25.7%246.3hPa2.9V00:00:0000:00:0000:00:00
SQ9EZE-132026-09-05 11:51:4249.0138020.9425391°151km/h10714m3.3m/s-50.6°C25.3%249.8hPa2.9V00:00:0000:00:0000:00:00
SQ9EZE-132026-09-05 11:51:2649.0129020.9330781°162km/h10615m6.9m/s-49.7°C22.3%253.7hPa2.9V00:00:0000:00:0000:00:00
SQ9EZE-142026-09-05 11:51:1649.0123720.9273383°161km/h10547m6.8m/s-49.0°C20.6%256.4hPa2.9V00:00:0000:00:0000:00:00
SQ9EZE-132026-09-05 11:51:1149.0121620.9243484°146km/h10519m7.3m/s-48.8°C19.9%257.6hPa2.9V00:00:0000:00:0000:00:00
SQ9EZE-142026-09-05 11:51:0149.0116820.9192882°139km/h10461m8.6m/s-48.3°C19.3%259.8hPa2.9V00:00:0000:00:0000:00:00
SQ9EZE-132026-09-05 11:50:5649.0113320.9165776°139km/h10424m4.8m/s-47.9°C18.6%261.2hPa2.9V00:00:0000:00:0000:00:00
OE3JTB-152026-09-05 11:50:4249.0105920.9086780°141km/h10329m9.5m/s-47.0°C19.3%265.0hPa2.9V00:00:0000:00:0000:00:00
SQ9EZE-132026-09-05 11:50:4049.0105220.9081379°141km/h10320m9.4m/s-47.0°C16.5%265.4hPa2.9V00:00:0000:00:0000:00:00
SQ9EZE-132026-09-05 11:50:2349.0098220.8988785°141km/h10212m8.0m/s-46.0°C15.7%269.7hPa2.9V00:00:0000:00:0000:00:00
GYPAP8-172026-09-05 11:50:1649.0093420.8953781°139km/h10168m5.2m/s-45.6°C15.3%271.4hPa2.9V00:00:0000:00:0000:00:00
SQ9EZE-132026-09-05 11:50:0749.0091820.8908188°122km/h10110m4.8m/s-45.1°C15.3%273.8hPa2.9V00:00:0000:00:0000:00:00
SQ9EZE-132026-09-05 11:49:5249.0084320.8830980°144km/h10017m7.2m/s-44.3°C14.0%277.7hPa2.9V00:00:0000:00:0000:00:00
OE3JTB-152026-09-05 11:49:4449.0081620.8781991°137km/h9960m4.4m/s-43.7°C16.3%280.0hPa2.9V00:00:0000:00:0000:00:00
SQ9EZE-132026-09-05 11:49:3649.0080720.8744984°126km/h9909m7.0m/s-43.3°C12.8%282.1hPa0V00:00:0000:00:0000:00:00
SQ9EZE-132026-09-05 11:49:2049.0075820.8661081°130km/h9805m9.8m/s-42.3°C11.6%286.6hPa0V00:00:0000:00:0000:00:00
OE3JTB-152026-09-05 11:49:1549.0073020.8630388°135km/h9759m5.9m/s0°C0%0hPa0V00:00:0000:00:0000:00:00
GYPAP8-172026-09-05 11:49:0749.0072620.8592987°126km/h9719m6.8m/s-41.4°C11.1%290.2hPa0V00:00:0000:00:0000:00:00
SQ9EZE-132026-09-05 11:49:0449.0071720.8578284°131km/h9695m9.2m/s-41.2°C11.3%291.3hPa0V00:00:0000:00:0000:00:00
SQ9EZE-142026-09-05 11:49:0249.0070720.8562986°133km/h9674m6.7m/s-41.1°C11.3%292.2hPa0V00:00:0000:00:0000:00:00
SQ9EZE-132026-09-05 11:48:4849.0070120.8496690°139km/h9597m8.3m/s-40.6°C11.1%295.5hPa0V00:00:0000:00:0000:00:00
OE3JTB-152026-09-05 11:48:4549.0068420.8475380°139km/h9571m5.5m/s0°C0%0hPa0V00:00:0001:27:4200:00:00
SQ9EZE-132026-09-05 11:48:3449.0066820.8417282°150km/h9500m6.4m/s-39.6°C10.3%299.7hPa0V00:00:0000:00:0000:00:00
SQ9EZE-132026-09-05 11:48:1749.0064820.8325287°150km/h9406m5.3m/s-38.7°C9.9%303.8hPa0V00:00:0000:00:0000:00:00
GYPAP8-172026-09-05 11:48:0249.0064420.8237690°144km/h9294m4.9m/s-37.6°C8.9%308.8hPa0V00:00:0000:00:0000:00:00
OE3JTB-152026-09-05 11:47:5849.0063120.8216983°137km/h9268m7.0m/s0°C0%0hPa0V00:00:0000:00:0000:00:00
SQ9EZE-132026-09-05 11:47:4449.0063820.8142196°142km/h9167m7.1m/s-36.6°C8.1%314.5hPa0V00:00:0000:00:0000:00:00
SQ9EZE-132026-09-05 11:47:2949.0065120.8058094°146km/h9060m8.3m/s-35.6°C7.4%319.4hPa0V00:00:0000:00:0000:00:00
SQ9EZE-132026-09-05 11:47:1449.0070820.7972893°148km/h8951m4.6m/s-34.6°C7.0%324.5hPa0V00:00:0000:00:0000:00:00
SQ9EZE-132026-09-05 11:46:5849.0076320.7885988°151km/h8842m8.1m/s-33.6°C6.5%329.5hPa0V00:00:0000:00:0000:00:00
SQ9EZE-142026-09-05 11:46:4449.0081420.7805697°146km/h8743m6.3m/s-32.7°C6.4%334.3hPa0V00:00:0000:00:0000:00:00
SQ9EZE-132026-09-05 11:46:4349.0081720.7800295°139km/h8736m8.2m/s-32.7°C6.4%334.6hPa0V00:00:0000:00:0000:00:00
SQ9EZE-142026-09-05 11:46:2849.0089220.7715697°135km/h8629m8.5m/s-31.7°C6.5%339.7hPa0V00:00:0000:00:0000:00:00
GYPAP8-172026-09-05 11:46:2249.0091920.7680899°172km/h8594m5.1m/s-31.4°C6.5%341.5hPa0V00:00:0000:00:0000:00:00
SQ9EZE-132026-09-05 11:46:1249.0097120.7621795°139km/h8530m4.9m/s-30.8°C6.4%344.6hPa0V00:00:0000:00:0000:00:00
SQ9EZE-132026-09-05 11:45:4049.0115320.74400102°166km/h8305m3.3m/s-29.3°C5.2%355.5hPa0V00:00:0000:00:0000:00:00
GYPAP8-172026-09-05 11:45:2749.0125320.73638104°148km/h8231m7.4m/s-28.8°C5.0%359.2hPa0V00:00:0000:00:0000:00:00
SQ9EZE-132026-09-05 11:45:2449.0126520.7352897°142km/h8216m8.5m/s-28.7°C4.8%359.9hPa0V00:00:0000:00:0000:00:00
SQ9EZE-132026-09-05 11:45:0849.0134920.72646102°131km/h8121m3.1m/s-28.1°C5.0%364.7hPa0V00:00:0000:00:0000:00:00
SQ9EZE-132026-09-05 11:44:5249.0141220.7179295°124km/h8021m6.8m/s-27.7°C4.9%369.8hPa0V00:00:0000:00:0000:00:00
SQ9EZE-132026-09-05 11:44:3749.0146620.7106294°126km/h7939m4.9m/s-27.3°C5.1%374.1hPa0V00:00:0000:00:0000:00:00
SQ9EZE-142026-09-05 11:44:2849.0148820.7064799°137km/h7887m5.6m/s-26.9°C5.3%377.0hPa0V00:00:0000:00:0000:00:00
GYPAP8-172026-09-05 11:44:2249.0149220.7031689°137km/h7853m6.3m/s-26.7°C5.5%378.8hPa0V00:00:0000:00:0000:00:00
SQ9EZE-132026-09-05 11:44:2149.0149220.7026491°130km/h7847m6.7m/s-26.6°C5.4%379.0hPa0V00:00:0000:00:0000:00:00
SQ9EZE-142026-09-05 11:44:1249.0152720.6982799°137km/h7797m6.7m/s-26.2°C5.5%381.5hPa0V00:00:0000:00:0000:00:00
SQ9EZE-132026-09-05 11:44:0649.0154820.69520100°124km/h7764m7.4m/s-26.0°C5.2%383.3hPa0V00:00:0000:00:0000:00:00
SQ9EZE-132026-09-05 11:43:5049.0154320.6874394°137km/h7686m3.7m/s-25.4°C5.0%387.5hPa0V00:00:0000:00:0000:00:00
SQ9EZE-132026-09-05 11:43:3449.0151220.6791691°133km/h7600m3.4m/s-24.6°C4.6%392.1hPa0V00:00:0000:00:0000:00:00
GYPAP8-172026-09-05 11:43:2049.0149120.6717992°131km/h7524m8.7m/s-24.3°C5.2%396.2hPa0V00:00:0000:00:0000:00:00
SQ9EZE-132026-09-05 11:43:1949.0149220.6712792°135km/h7516m7.3m/s-24.4°C5.4%396.6hPa0V00:00:0000:00:0000:00:00
SQ9EZE-132026-09-05 11:43:0649.0149120.6638086°117km/h7439m5.9m/s-24.4°C6.6%400.8hPa0V00:00:0000:00:0000:00:00
SQ9EZE-132026-09-05 11:42:5049.0150320.6561894°141km/h7369m5.0m/s-24.1°C7.6%404.5hPa0V00:00:0000:00:0000:00:00
SQ9EZE-132026-09-05 11:42:3449.0147220.6484093°131km/h7293m7.2m/s-23.6°C7.8%408.8hPa0V00:00:0000:00:0000:00:00
SQ9EZE-132026-09-05 11:42:1949.0140320.6403390°122km/h7195m4.6m/s-22.7°C7.0%414.4hPa0V00:00:0000:00:0000:00:00
GYPAP8-172026-09-05 11:42:1349.0139320.6380787°113km/h7175m4.4m/s-22.6°C6.8%415.5hPa0V00:00:0000:00:0000:00:00
SQ9EZE-142026-09-05 11:42:1249.0139020.6376387°115km/h7172m2.6m/s-22.5°C6.8%415.8hPa0V00:00:0000:00:0000:00:00
SQ9EZE-132026-09-05 11:42:0349.0135220.6333289°126km/h7129m6.1m/s-22.2°C7.2%418.2hPa0V00:00:0000:00:0000:00:00
SQ9EZE-142026-09-05 11:41:5649.0132820.6301383°133km/h7091m4.0m/s-22.0°C0%420.4hPa0V00:00:0000:00:0000:00:00
OE3JTB-152026-09-05 11:41:5249.0130120.6275380°135km/h7059m6.4m/s0°C0%0hPa0V00:00:0000:00:0000:00:00
SQ9EZE-132026-09-05 11:41:4749.0127320.6254878°137km/h7039m4.7m/s-21.5°C7.4%423.3hPa0V00:00:0000:00:0000:00:00
SQ9EZE-132026-09-05 11:41:3249.0122520.6179585°142km/h6969m4.5m/s-20.9°C7.3%427.4hPa0V00:00:0000:00:0000:00:00
OE3JTB-152026-09-05 11:41:2249.0120520.6126382°128km/h6903m6.0m/s0°C0%0hPa0V00:00:0001:20:1900:00:00
GYPAP8-172026-09-05 11:41:1649.0118220.6101084°119km/h6873m5.3m/s-20.0°C6.9%433.0hPa0V00:00:0000:00:0000:00:00
SQ9EZE-132026-09-05 11:41:0149.0116320.6027893°122km/h6796m4.8m/s-19.5°C5.5%437.4hPa0V00:00:0000:00:0000:00:00
SQ9EZE-132026-09-05 11:40:4649.0113820.5955384°130km/h6719m6.5m/s-19.0°C5.4%442.0hPa0V00:00:0000:00:0000:00:00
GYPAP8-172026-09-05 11:40:3149.0113620.5881480°128km/h6631m2.6m/s-18.4°C5.1%447.2hPa0V00:00:0000:00:0000:00:00
SQ9EZE-132026-09-05 11:40:2849.0112320.5866888°128km/h6620m4.5m/s-18.4°C5.1%447.9hPa0V00:00:0000:00:0000:00:00
SQ9EZE-132026-09-05 11:40:1249.0110720.5787780°113km/h6529m7.2m/s-17.7°C4.5%453.3hPa0V00:00:0000:00:0000:00:00
SQ9EZE-132026-09-05 11:39:5749.0107920.5721486°124km/h6434m8.1m/s-16.8°C4.1%458.9hPa0V00:00:0000:00:0000:00:00
SQ9EZE-142026-09-05 11:39:5549.0107620.5711590°131km/h6420m5.5m/s-16.7°C0%0hPa0V00:00:0000:00:0000:00:00
SQ9EZE-132026-09-05 11:39:4149.0105720.5647789°126km/h6346m4.4m/s-16.3°C3.3%464.3hPa0V00:00:0000:00:0000:00:00
SQ9EZE-142026-09-05 11:39:4049.0105520.5643087°120km/h6341m5.0m/s-16.3°C0%0hPa0V00:00:0000:00:0000:00:00
GYPAP8-172026-09-05 11:39:3949.0104920.5634084°113km/h6329m6.4m/s-16.5°C3.1%465.3hPa0V00:00:0000:00:0000:00:00
SQ9EZE-132026-09-05 11:39:2449.0100220.5568383°122km/h6260m3.7m/s-16.1°C4.6%469.7hPa0V00:00:0000:00:0000:00:00
SQ9EZE-132026-09-05 11:39:0949.0097320.5498597°117km/h6189m3.1m/s-16.0°C3.9%474.0hPa0V00:00:0000:00:0000:00:00
OM5KV2026-09-05 11:39:0149.0096020.5460188°139km/h6144m2.8m/s-15.9°C4.2%476.9hPa0V00:00:0000:00:0000:00:00
SQ9EZE-132026-09-05 11:38:5449.0095520.5421592°139km/h6108m5.5m/s-15.7°C4.0%479.2hPa0V00:00:0000:00:0000:00:00
OM5KV2026-09-05 11:38:5349.0095720.5416295°135km/h6102m5.9m/s-15.6°C3.8%479.6hPa0V00:00:0000:00:0000:00:00
OM5KV2026-09-05 11:38:4749.0097520.5386890°128km/h6071m5.8m/s-15.4°C3.5%481.6hPa0V00:00:0000:00:0000:00:00
OM5KV2026-09-05 11:38:4449.0097020.5371487°137km/h6053m3.6m/s-15.3°C3.0%482.6hPa0V00:00:0000:00:0000:00:00
SQ9EZE-132026-09-05 11:38:3849.0097120.5341094°117km/h6025m8.6m/s-15.2°C2.9%484.4hPa0V00:00:0000:00:0000:00:00
OM5KV2026-09-05 11:38:3549.0097220.5327788°119km/h6006m4.6m/s-15.0°C3.0%485.7hPa0V00:00:0000:00:0000:00:00
OM5KV2026-09-05 11:38:3249.0096620.5312887°137km/h5993m7.2m/s-14.9°C2.9%486.5hPa0V00:00:0000:00:0000:00:00
OM5KV2026-09-05 11:38:3149.0096420.5307587°139km/h5985m8.0m/s-14.8°C2.9%486.9hPa0V00:00:0000:00:0000:00:00
SQ9EZE-132026-09-05 11:38:2249.0098720.5262195°131km/h5930m4.2m/s-14.6°C15.3%490.7hPa0V00:00:0000:00:0000:00:00
GYPAP8-172026-09-05 11:38:2049.0099020.5251592°142km/h5918m5.7m/s0°C0%491.3hPa0V00:00:0000:00:0000:00:00
OM5KV2026-09-05 11:38:0949.0098320.5194885°117km/h5860m6.8m/s-14.4°C39.1%495.2hPa0V00:00:0000:00:0000:00:00
SQ9EZE-132026-09-05 11:38:0649.0097220.5180884°128km/h5844m4.3m/s-14.3°C53.2%496.2hPa0V00:00:0000:00:0000:00:00
OM5KV2026-09-05 11:38:0349.0096420.5165390°141km/h5829m4.9m/s-14.3°C61.3%497.1hPa0V00:00:0000:00:0000:00:00
OM5KV2026-09-05 11:38:0049.0097120.5149498°137km/h5813m7.5m/s-14.3°C71.3%498.1hPa0V00:00:0000:00:0000:00:00
OM5KV2026-09-05 11:37:5749.0097720.5134589°124km/h5793m5.8m/s-14.1°C72.9%499.6hPa0V00:00:0000:00:0000:00:00
OM5KV2026-09-05 11:37:5649.0097520.5129788°122km/h5787m6.3m/s-14.0°C73.2%499.9hPa0V00:00:0000:00:0000:00:00
SQ9EZE-132026-09-05 11:37:5049.0096820.5100393°144km/h5740m6.9m/s-13.6°C77.5%502.9hPa0V00:00:0000:00:0000:00:00
OM5KV2026-09-05 11:37:4349.0095320.5064086°122km/h5692m5.8m/s-13.3°C82.7%506.1hPa0V00:00:0000:00:0000:00:00
OM5KV2026-09-05 11:37:4049.0094420.5049486°137km/h5674m4.8m/s-13.2°C0%507.4hPa0V00:00:0000:00:0000:00:00
OM5KV2026-09-05 11:37:3749.0093620.5032887°146km/h5659m6.3m/s-13.1°C88.4%508.3hPa0V00:00:0000:00:0000:00:00
OM5KV2026-09-05 11:37:3449.0092820.5016886°133km/h5640m8.4m/s-12.9°C88.9%509.7hPa0V00:00:0000:00:0000:00:00
OM5KV2026-09-05 11:37:3149.0091720.5002585°119km/h5621m5.2m/s-12.8°C92.5%511.0hPa0V00:00:0000:00:0000:00:00
OM5KV2026-09-05 11:37:2949.0091320.4993488°119km/h5611m4.9m/s-12.9°C0%511.8hPa0V00:00:0000:00:0000:00:00
OM5KV2026-09-05 11:37:2849.0091020.4988987°117km/h5606m7.4m/s-12.9°C95.4%512.1hPa0V00:00:0000:00:0000:00:00
GYPAP8-172026-09-05 11:37:2549.0090220.4974986°128km/h5586m4.8m/s0°C0%513.5hPa0V00:00:0000:00:0000:00:00
SQ9EZE-142026-09-05 11:37:2449.0089920.4969986°135km/h5580m7.6m/s0°C0%0hPa0V00:00:0000:00:0000:00:00
OM5KV2026-09-05 11:37:1949.0088420.4942789°144km/h5549m5.5m/s-12.5°C70.7%516.0hPa0V00:00:0000:00:0000:00:00
OM5KV2026-09-05 11:37:1849.0088320.4937190°148km/h5543m6.1m/s-12.4°C0%516.3hPa0V00:00:0000:00:0000:00:00
OM5KV2026-09-05 11:37:1249.0089620.4904394°142km/h5505m6.5m/s-12.1°C0%519.0hPa0V00:00:0000:00:0000:00:00
OM5KV2026-09-05 11:37:1149.0089620.4898991°139km/h5499m5.6m/s-12.0°C55.4%519.4hPa0V00:00:0000:00:0000:00:00
OM5KV2026-09-05 11:37:0949.0089320.4888586°130km/h5487m6.2m/s-11.9°C49.6%520.1hPa0V00:00:0000:00:0000:00:00
OM5KV2026-09-05 11:37:0649.0088320.4874687°113km/h5466m6.7m/s-11.7°C49.8%521.5hPa0V00:00:0000:00:0000:00:00
OM5KV2026-09-05 11:37:0549.0088220.4870390°111km/h5460m5.7m/s-11.7°C0%522.0hPa0V00:00:0000:00:0000:00:00
SQ9EZE-132026-09-05 11:37:0249.0088320.4857093°122km/h5439m5.3m/s-11.4°C42.9%523.4hPa0V00:00:0000:00:0000:00:00
OE3JTB-152026-09-05 11:36:5749.0088320.4829394°119km/h5398m6.3m/s0°C0%0hPa0V00:00:0000:00:0000:00:00
OM5KV2026-09-05 11:36:5549.0088620.4824998°115km/h5390m7.7m/s-11.0°C0%526.6hPa0V00:00:0000:00:0000:00:00
OM5KV2026-09-05 11:36:5349.0089420.4815697°128km/h5378m5.6m/s-10.9°C0%527.6hPa0V00:00:0000:00:0000:00:00
OM5KV2026-09-05 11:36:5149.0089920.4805693°133km/h5365m7.0m/s-10.8°C0%528.3hPa0V00:00:0000:00:0000:00:00
SQ9EZE-132026-09-05 11:36:4849.0090020.4784990°135km/h5341m5.6m/s-10.6°C0%530.1hPa0V00:00:0000:00:0000:00:00
OM5KV2026-09-05 11:36:4449.0089920.4769691°133km/h5326m5.7m/s0°C0%531.0hPa0V00:00:0000:00:0000:00:00
GYPAP8-172026-09-05 11:36:3749.0091020.4738790°99km/h5274m6.3m/s0°C0%534.8hPa0V00:00:0000:00:0000:00:00
SQ9EZE-132026-09-05 11:36:3249.0090420.4717293°126km/h5243m6.9m/s-9.7°C0%0hPa0V00:00:0000:00:0000:00:00
OM5KV2026-09-05 11:36:3149.0090620.4712496°124km/h5236m6.9m/s0°C0%0hPa0V00:00:0000:00:0000:00:00
OM5KV2026-09-05 11:36:2649.0091520.4689786°113km/h5197m9.4m/s0°C0%0hPa0V00:00:0000:00:0000:00:00
OM5KV2026-09-05 11:36:2549.0091220.4685484°113km/h5188m8.0m/s0°C0%0hPa0V00:00:0000:00:0000:00:00
OM5KV2026-09-05 11:36:2049.0090820.4665798°104km/h5153m8.1m/s0°C0%0hPa0V00:00:0000:00:0000:00:00
OM5KV2026-09-05 11:36:1949.0091120.4661798°108km/h5145m7.9m/s0°C0%0hPa0V00:00:0000:00:0000:00:00
SQ9EZE-132026-09-05 11:36:1649.0091720.4648891°111km/h5124m6.8m/s-8.7°C0%0hPa0V00:00:0000:00:0000:00:00
OM5KV2026-09-05 11:36:1449.0091620.4640388°110km/h5110m7.2m/s0°C0%0hPa0V00:00:0000:00:0000:00:00
SQ9EZE-132026-09-05 11:36:0149.0091920.4586295°88km/h5015m5.9m/s-7.9°C0%0hPa0V00:00:0000:00:0000:00:00
OM5KV2026-09-05 11:35:5949.0092620.45792102°97km/h5003m5.8m/s0°C0%0hPa0V00:00:0000:00:0000:00:00
SQ9EZE-132026-09-05 11:35:4549.0093620.4528594°93km/h4905m8.5m/s0°C0%0hPa0V00:00:0000:00:0000:00:00
GYPAP8-172026-09-05 11:35:3049.0097920.4481191°75km/h4808m8.2m/s0°C0%0hPa0V00:00:0000:00:0000:00:00
SQ9EZE-142026-09-05 11:35:2649.0097520.4468986°80km/h4778m9.3m/s0°C0%0hPa0V00:00:0000:00:0000:00:00


GPX KML Map

© wettersonde.net (DO2JMG) - 2026  -  -